<?xml version='1.0' encoding='UTF-8'?>
<gpx version="1.1" creator="https://www.komoot.de" xmlns="http://www.topografix.com/GPX/1/1" xmlns:xsi="http://www.w3.org/2001/XMLSchema-instance" xsi:schemaLocation="http://www.topografix.com/GPX/1/1 http://www.topografix.com/GPX/1/1/gpx.xsd">
  <metadata>
    <name>47_600IttenthalSulz</name>
    <author>
      <link href="https://www.komoot.de">
        <text>komoot</text>
        <type>text/html</type>
      </link>
    </author>
  </metadata>
  <trk>
    <name>47_600IttenthalSulz</name>
    <trkseg>
      <trkpt lat="47.541953" lon="7.871286">
        <ele>343.129277</ele>
        <time>2021-11-08T20:00:09.210Z</time>
      </trkpt>
      <trkpt lat="47.541953" lon="7.871286">
        <ele>343.129277</ele>
        <time>2021-11-08T20:00:09.224Z</time>
      </trkpt>
      <trkpt lat="47.542039" lon="7.871556">
        <ele>343.129277</ele>
        <time>2021-11-08T20:00:14.093Z</time>
      </trkpt>
      <trkpt lat="47.542067" lon="7.871664">
        <ele>343.129277</ele>
        <time>2021-11-08T20:00:15.792Z</time>
      </trkpt>
      <trkpt lat="47.542091" lon="7.871721">
        <ele>343.129277</ele>
        <time>2021-11-08T20:00:16.447Z</time>
      </trkpt>
      <trkpt lat="47.542218" lon="7.871866">
        <ele>343.129277</ele>
        <time>2021-11-08T20:00:21.997Z</time>
      </trkpt>
      <trkpt lat="47.542394" lon="7.872341">
        <ele>343.129277</ele>
        <time>2021-11-08T20:00:32.736Z</time>
      </trkpt>
      <trkpt lat="47.542436" lon="7.872494">
        <ele>343.463923</ele>
        <time>2021-11-08T20:00:36.230Z</time>
      </trkpt>
      <trkpt lat="47.542533" lon="7.872433">
        <ele>344.021287</ele>
        <time>2021-11-08T20:00:38.309Z</time>
      </trkpt>
      <trkpt lat="47.542537" lon="7.872430">
        <ele>344.045001</ele>
        <time>2021-11-08T20:00:38.411Z</time>
      </trkpt>
      <trkpt lat="47.542714" lon="7.872334">
        <ele>345.041957</ele>
        <time>2021-11-08T20:00:45.655Z</time>
      </trkpt>
      <trkpt lat="47.542814" lon="7.872280">
        <ele>345.604918</ele>
        <time>2021-11-08T20:00:48.618Z</time>
      </trkpt>
      <trkpt lat="47.542919" lon="7.872226">
        <ele>346.192796</ele>
        <time>2021-11-08T20:00:52.515Z</time>
      </trkpt>
      <trkpt lat="47.543013" lon="7.872182">
        <ele>346.714207</ele>
        <time>2021-11-08T20:00:56.145Z</time>
      </trkpt>
      <trkpt lat="47.543233" lon="7.872082">
        <ele>347.931368</ele>
        <time>2021-11-08T20:01:03.243Z</time>
      </trkpt>
      <trkpt lat="47.543251" lon="7.872152">
        <ele>348.198813</ele>
        <time>2021-11-08T20:01:06.658Z</time>
      </trkpt>
      <trkpt lat="47.543332" lon="7.872237">
        <ele>348.723833</ele>
        <time>2021-11-08T20:01:10.068Z</time>
      </trkpt>
      <trkpt lat="47.544390" lon="7.872423">
        <ele>354.868321</ele>
        <time>2021-11-08T20:01:51.699Z</time>
      </trkpt>
      <trkpt lat="47.544883" lon="7.872555">
        <ele>358.304349</ele>
        <time>2021-11-08T20:02:14.042Z</time>
      </trkpt>
      <trkpt lat="47.545131" lon="7.872664">
        <ele>360.078537</ele>
        <time>2021-11-08T20:02:25.046Z</time>
      </trkpt>
      <trkpt lat="47.545375" lon="7.872836">
        <ele>361.931802</ele>
        <time>2021-11-08T20:02:35.987Z</time>
      </trkpt>
      <trkpt lat="47.545478" lon="7.872968">
        <ele>362.865868</ele>
        <time>2021-11-08T20:02:42.794Z</time>
      </trkpt>
      <trkpt lat="47.545515" lon="7.873015">
        <ele>363.200145</ele>
        <time>2021-11-08T20:02:44.751Z</time>
      </trkpt>
      <trkpt lat="47.545746" lon="7.873302">
        <ele>365.214835</ele>
        <time>2021-11-08T20:02:57.950Z</time>
      </trkpt>
      <trkpt lat="47.545934" lon="7.873549">
        <ele>366.622316</ele>
        <time>2021-11-08T20:03:08.051Z</time>
      </trkpt>
      <trkpt lat="47.546077" lon="7.873763">
        <ele>367.760830</ele>
        <time>2021-11-08T20:03:17.247Z</time>
      </trkpt>
      <trkpt lat="47.546135" lon="7.873859">
        <ele>368.247946</ele>
        <time>2021-11-08T20:03:20.486Z</time>
      </trkpt>
      <trkpt lat="47.546309" lon="7.874154">
        <ele>369.729120</ele>
        <time>2021-11-08T20:03:31.601Z</time>
      </trkpt>
      <trkpt lat="47.547126" lon="7.875801">
        <ele>375.883499</ele>
        <time>2021-11-08T20:04:17.362Z</time>
      </trkpt>
      <trkpt lat="47.547574" lon="7.876801">
        <ele>377.450897</ele>
        <time>2021-11-08T20:04:36.357Z</time>
      </trkpt>
      <trkpt lat="47.547992" lon="7.877974">
        <ele>377.601104</ele>
        <time>2021-11-08T20:04:49.158Z</time>
      </trkpt>
      <trkpt lat="47.548234" lon="7.878638">
        <ele>376.187638</ele>
        <time>2021-11-08T20:04:54.470Z</time>
      </trkpt>
      <trkpt lat="47.548422" lon="7.878959">
        <ele>375.391583</ele>
        <time>2021-11-08T20:04:57.313Z</time>
      </trkpt>
      <trkpt lat="47.548718" lon="7.879258">
        <ele>374.397403</ele>
        <time>2021-11-08T20:05:00.851Z</time>
      </trkpt>
      <trkpt lat="47.549140" lon="7.879391">
        <ele>373.028057</ele>
        <time>2021-11-08T20:05:05.038Z</time>
      </trkpt>
      <trkpt lat="47.549318" lon="7.879398">
        <ele>372.285134</ele>
        <time>2021-11-08T20:05:06.665Z</time>
      </trkpt>
      <trkpt lat="47.549327" lon="7.879547">
        <ele>371.863860</ele>
        <time>2021-11-08T20:05:07.651Z</time>
      </trkpt>
      <trkpt lat="47.549726" lon="7.880786">
        <ele>367.997949</ele>
        <time>2021-11-08T20:05:16.586Z</time>
      </trkpt>
      <trkpt lat="47.549927" lon="7.881490">
        <ele>365.873623</ele>
        <time>2021-11-08T20:05:21.618Z</time>
      </trkpt>
      <trkpt lat="47.550234" lon="7.883221">
        <ele>361.574985</ele>
        <time>2021-11-08T20:05:34.019Z</time>
      </trkpt>
      <trkpt lat="47.550332" lon="7.884727">
        <ele>357.267358</ele>
        <time>2021-11-08T20:05:43.863Z</time>
      </trkpt>
      <trkpt lat="47.550391" lon="7.885109">
        <ele>355.952224</ele>
        <time>2021-11-08T20:05:46.395Z</time>
      </trkpt>
      <trkpt lat="47.550548" lon="7.885799">
        <ele>353.508535</ele>
        <time>2021-11-08T20:05:51.001Z</time>
      </trkpt>
      <trkpt lat="47.550677" lon="7.886476">
        <ele>351.147720</ele>
        <time>2021-11-08T20:05:55.435Z</time>
      </trkpt>
      <trkpt lat="47.550758" lon="7.887295">
        <ele>347.862566</ele>
        <time>2021-11-08T20:06:00.581Z</time>
      </trkpt>
      <trkpt lat="47.550789" lon="7.887816">
        <ele>345.724174</ele>
        <time>2021-11-08T20:06:03.813Z</time>
      </trkpt>
      <trkpt lat="47.550818" lon="7.888367">
        <ele>343.464549</ele>
        <time>2021-11-08T20:06:07.252Z</time>
      </trkpt>
      <trkpt lat="47.550831" lon="7.888611">
        <ele>342.463843</ele>
        <time>2021-11-08T20:06:08.765Z</time>
      </trkpt>
      <trkpt lat="47.550833" lon="7.889069">
        <ele>340.591253</ele>
        <time>2021-11-08T20:06:11.576Z</time>
      </trkpt>
      <trkpt lat="47.550915" lon="7.890600">
        <ele>334.510074</ele>
        <time>2021-11-08T20:06:20.968Z</time>
      </trkpt>
      <trkpt lat="47.550904" lon="7.891725">
        <ele>330.076058</ele>
        <time>2021-11-08T20:06:27.968Z</time>
      </trkpt>
      <trkpt lat="47.550892" lon="7.893176">
        <ele>327.163489</ele>
        <time>2021-11-08T20:06:37.580Z</time>
      </trkpt>
      <trkpt lat="47.550908" lon="7.894308">
        <ele>325.236872</ele>
        <time>2021-11-08T20:06:46.785Z</time>
      </trkpt>
      <trkpt lat="47.550878" lon="7.895158">
        <ele>324.208518</ele>
        <time>2021-11-08T20:06:53.970Z</time>
      </trkpt>
      <trkpt lat="47.550838" lon="7.895509">
        <ele>323.864342</ele>
        <time>2021-11-08T20:06:57.134Z</time>
      </trkpt>
      <trkpt lat="47.550660" lon="7.896255">
        <ele>323.099308</ele>
        <time>2021-11-08T20:07:03.622Z</time>
      </trkpt>
      <trkpt lat="47.550639" lon="7.896345">
        <ele>323.007236</ele>
        <time>2021-11-08T20:07:04.810Z</time>
      </trkpt>
      <trkpt lat="47.550648" lon="7.896481">
        <ele>322.875110</ele>
        <time>2021-11-08T20:07:05.765Z</time>
      </trkpt>
      <trkpt lat="47.550819" lon="7.898109">
        <ele>319.849492</ele>
        <time>2021-11-08T20:07:17.513Z</time>
      </trkpt>
      <trkpt lat="47.550801" lon="7.900244">
        <ele>314.423590</ele>
        <time>2021-11-08T20:07:31.350Z</time>
      </trkpt>
      <trkpt lat="47.550769" lon="7.901362">
        <ele>311.390350</ele>
        <time>2021-11-08T20:07:38.622Z</time>
      </trkpt>
      <trkpt lat="47.550757" lon="7.901591">
        <ele>310.767741</ele>
        <time>2021-11-08T20:07:40.758Z</time>
      </trkpt>
      <trkpt lat="47.550688" lon="7.902451">
        <ele>308.420159</ele>
        <time>2021-11-08T20:07:49.192Z</time>
      </trkpt>
      <trkpt lat="47.550498" lon="7.903445">
        <ele>305.768180</ele>
        <time>2021-11-08T20:07:59.442Z</time>
      </trkpt>
      <trkpt lat="47.550302" lon="7.904164">
        <ele>303.782876</ele>
        <time>2021-11-08T20:08:06.702Z</time>
      </trkpt>
      <trkpt lat="47.550025" lon="7.904774">
        <ele>301.900539</ele>
        <time>2021-11-08T20:08:13.627Z</time>
      </trkpt>
      <trkpt lat="47.549868" lon="7.905010">
        <ele>301.129286</ele>
        <time>2021-11-08T20:08:16.759Z</time>
      </trkpt>
      <trkpt lat="47.549867" lon="7.905155">
        <ele>300.826355</ele>
        <time>2021-11-08T20:08:18.155Z</time>
      </trkpt>
      <trkpt lat="47.550067" lon="7.905245">
        <ele>300.179401</ele>
        <time>2021-11-08T20:08:21.081Z</time>
      </trkpt>
      <trkpt lat="47.550283" lon="7.905413">
        <ele>299.424325</ele>
        <time>2021-11-08T20:08:24.531Z</time>
      </trkpt>
      <trkpt lat="47.550497" lon="7.905558">
        <ele>298.695984</ele>
        <time>2021-11-08T20:08:27.889Z</time>
      </trkpt>
      <trkpt lat="47.549539" lon="7.908625">
        <ele>293.176147</ele>
        <time>2021-11-08T20:08:52.348Z</time>
      </trkpt>
      <trkpt lat="47.549520" lon="7.908678">
        <ele>293.096016</ele>
        <time>2021-11-08T20:08:52.860Z</time>
      </trkpt>
      <trkpt lat="47.549304" lon="7.909393">
        <ele>292.167929</ele>
        <time>2021-11-08T20:08:59.193Z</time>
      </trkpt>
      <trkpt lat="47.549198" lon="7.909746">
        <ele>291.857535</ele>
        <time>2021-11-08T20:09:02.431Z</time>
      </trkpt>
      <trkpt lat="47.549195" lon="7.909756">
        <ele>291.848744</ele>
        <time>2021-11-08T20:09:02.503Z</time>
      </trkpt>
      <trkpt lat="47.549158" lon="7.909875">
        <ele>291.743485</ele>
        <time>2021-11-08T20:09:03.537Z</time>
      </trkpt>
      <trkpt lat="47.549102" lon="7.910058">
        <ele>291.582062</ele>
        <time>2021-11-08T20:09:05.232Z</time>
      </trkpt>
      <trkpt lat="47.549012" lon="7.910340">
        <ele>291.331457</ele>
        <time>2021-11-08T20:09:07.718Z</time>
      </trkpt>
      <trkpt lat="47.548412" lon="7.912168">
        <ele>289.847342</ele>
        <time>2021-11-08T20:09:24.052Z</time>
      </trkpt>
      <trkpt lat="47.548027" lon="7.913334">
        <ele>289.111003</ele>
        <time>2021-11-08T20:09:34.813Z</time>
      </trkpt>
      <trkpt lat="47.547994" lon="7.913433">
        <ele>289.048368</ele>
        <time>2021-11-08T20:09:35.734Z</time>
      </trkpt>
      <trkpt lat="47.547423" lon="7.915080">
        <ele>288.773616</ele>
        <time>2021-11-08T20:09:53.222Z</time>
      </trkpt>
      <trkpt lat="47.547113" lon="7.915971">
        <ele>288.839159</ele>
        <time>2021-11-08T20:10:03.860Z</time>
      </trkpt>
      <trkpt lat="47.547091" lon="7.916039">
        <ele>288.844090</ele>
        <time>2021-11-08T20:10:04.910Z</time>
      </trkpt>
      <trkpt lat="47.547032" lon="7.916218">
        <ele>288.857115</ele>
        <time>2021-11-08T20:10:07.181Z</time>
      </trkpt>
      <trkpt lat="47.546821" lon="7.916867">
        <ele>289.077729</ele>
        <time>2021-11-08T20:10:15.596Z</time>
      </trkpt>
      <trkpt lat="47.546262" lon="7.919081">
        <ele>289.934461</ele>
        <time>2021-11-08T20:10:43.257Z</time>
      </trkpt>
      <trkpt lat="47.546128" lon="7.919617">
        <ele>290.078081</ele>
        <time>2021-11-08T20:10:48.685Z</time>
      </trkpt>
      <trkpt lat="47.545973" lon="7.920313">
        <ele>290.262236</ele>
        <time>2021-11-08T20:10:56.105Z</time>
      </trkpt>
      <trkpt lat="47.545913" lon="7.920765">
        <ele>290.377985</ele>
        <time>2021-11-08T20:11:00.862Z</time>
      </trkpt>
      <trkpt lat="47.545881" lon="7.921096">
        <ele>290.462004</ele>
        <time>2021-11-08T20:11:04.829Z</time>
      </trkpt>
      <trkpt lat="47.545810" lon="7.921755">
        <ele>291.072119</ele>
        <time>2021-11-08T20:11:13.439Z</time>
      </trkpt>
      <trkpt lat="47.545778" lon="7.921947">
        <ele>291.364952</ele>
        <time>2021-11-08T20:11:16.393Z</time>
      </trkpt>
      <trkpt lat="47.545714" lon="7.922249">
        <ele>291.833644</ele>
        <time>2021-11-08T20:11:20.246Z</time>
      </trkpt>
      <trkpt lat="47.545699" lon="7.922325">
        <ele>291.950890</ele>
        <time>2021-11-08T20:11:21.444Z</time>
      </trkpt>
      <trkpt lat="47.545690" lon="7.922369">
        <ele>292.018966</ele>
        <time>2021-11-08T20:11:22.515Z</time>
      </trkpt>
      <trkpt lat="47.545641" lon="7.922610">
        <ele>292.391653</ele>
        <time>2021-11-08T20:11:25.871Z</time>
      </trkpt>
      <trkpt lat="47.545587" lon="7.922895">
        <ele>292.829965</ele>
        <time>2021-11-08T20:11:30.703Z</time>
      </trkpt>
      <trkpt lat="47.545553" lon="7.923142">
        <ele>293.203227</ele>
        <time>2021-11-08T20:11:34.313Z</time>
      </trkpt>
      <trkpt lat="47.545536" lon="7.923407">
        <ele>293.597382</ele>
        <time>2021-11-08T20:11:39.189Z</time>
      </trkpt>
      <trkpt lat="47.545521" lon="7.923709">
        <ele>294.045765</ele>
        <time>2021-11-08T20:11:44.356Z</time>
      </trkpt>
      <trkpt lat="47.545481" lon="7.924396">
        <ele>295.474299</ele>
        <time>2021-11-08T20:11:58.959Z</time>
      </trkpt>
      <trkpt lat="47.545466" lon="7.924880">
        <ele>296.694070</ele>
        <time>2021-11-08T20:12:10.266Z</time>
      </trkpt>
      <trkpt lat="47.545446" lon="7.925350">
        <ele>297.879661</ele>
        <time>2021-11-08T20:12:20.641Z</time>
      </trkpt>
      <trkpt lat="47.545417" lon="7.925848">
        <ele>299.138051</ele>
        <time>2021-11-08T20:12:31.120Z</time>
      </trkpt>
      <trkpt lat="47.545409" lon="7.926773">
        <ele>301.243867</ele>
        <time>2021-11-08T20:12:48.321Z</time>
      </trkpt>
      <trkpt lat="47.545407" lon="7.927001">
        <ele>301.350215</ele>
        <time>2021-11-08T20:12:52.130Z</time>
      </trkpt>
      <trkpt lat="47.545406" lon="7.927306">
        <ele>301.492469</ele>
        <time>2021-11-08T20:12:56.734Z</time>
      </trkpt>
      <trkpt lat="47.545421" lon="7.927686">
        <ele>301.670005</ele>
        <time>2021-11-08T20:13:02.270Z</time>
      </trkpt>
      <trkpt lat="47.545475" lon="7.928419">
        <ele>302.013907</ele>
        <time>2021-11-08T20:13:11.587Z</time>
      </trkpt>
      <trkpt lat="47.545563" lon="7.929641">
        <ele>302.009226</ele>
        <time>2021-11-08T20:13:21.467Z</time>
      </trkpt>
      <trkpt lat="47.545661" lon="7.930955">
        <ele>300.268679</ele>
        <time>2021-11-08T20:13:30.862Z</time>
      </trkpt>
      <trkpt lat="47.545696" lon="7.931497">
        <ele>299.551822</ele>
        <time>2021-11-08T20:13:34.831Z</time>
      </trkpt>
      <trkpt lat="47.545721" lon="7.931992">
        <ele>298.923354</ele>
        <time>2021-11-08T20:13:38.624Z</time>
      </trkpt>
      <trkpt lat="47.545724" lon="7.932758">
        <ele>298.776036</ele>
        <time>2021-11-08T20:13:44.833Z</time>
      </trkpt>
      <trkpt lat="47.545702" lon="7.933290">
        <ele>298.673531</ele>
        <time>2021-11-08T20:13:49.476Z</time>
      </trkpt>
      <trkpt lat="47.545674" lon="7.933625">
        <ele>298.608612</ele>
        <time>2021-11-08T20:13:52.676Z</time>
      </trkpt>
      <trkpt lat="47.545457" lon="7.935110">
        <ele>298.914709</ele>
        <time>2021-11-08T20:14:10.846Z</time>
      </trkpt>
      <trkpt lat="47.545074" lon="7.936484">
        <ele>300.360472</ele>
        <time>2021-11-08T20:14:32.338Z</time>
      </trkpt>
      <trkpt lat="47.545025" lon="7.936608">
        <ele>300.500216</ele>
        <time>2021-11-08T20:14:34.484Z</time>
      </trkpt>
      <trkpt lat="47.544903" lon="7.936917">
        <ele>300.848373</ele>
        <time>2021-11-08T20:14:39.655Z</time>
      </trkpt>
      <trkpt lat="47.544705" lon="7.937395">
        <ele>301.483014</ele>
        <time>2021-11-08T20:14:47.839Z</time>
      </trkpt>
      <trkpt lat="47.544472" lon="7.937932">
        <ele>302.246937</ele>
        <time>2021-11-08T20:14:57.278Z</time>
      </trkpt>
      <trkpt lat="47.543826" lon="7.939433">
        <ele>304.339301</ele>
        <time>2021-11-08T20:15:23.937Z</time>
      </trkpt>
      <trkpt lat="47.543435" lon="7.940670">
        <ele>305.633239</ele>
        <time>2021-11-08T20:15:43.782Z</time>
      </trkpt>
      <trkpt lat="47.543204" lon="7.941972">
        <ele>306.684151</ele>
        <time>2021-11-08T20:16:01.498Z</time>
      </trkpt>
      <trkpt lat="47.543161" lon="7.942213">
        <ele>306.639959</ele>
        <time>2021-11-08T20:16:04.632Z</time>
      </trkpt>
      <trkpt lat="47.543007" lon="7.943867">
        <ele>306.343959</ele>
        <time>2021-11-08T20:16:20.242Z</time>
      </trkpt>
      <trkpt lat="47.542913" lon="7.945267">
        <ele>305.211506</ele>
        <time>2021-11-08T20:16:31.215Z</time>
      </trkpt>
      <trkpt lat="47.542872" lon="7.945781">
        <ele>304.588839</ele>
        <time>2021-11-08T20:16:35.031Z</time>
      </trkpt>
      <trkpt lat="47.542875" lon="7.946089">
        <ele>304.218262</ele>
        <time>2021-11-08T20:16:37.266Z</time>
      </trkpt>
      <trkpt lat="47.542902" lon="7.946514">
        <ele>303.704709</ele>
        <time>2021-11-08T20:16:40.360Z</time>
      </trkpt>
      <trkpt lat="47.542943" lon="7.946806">
        <ele>303.345901</ele>
        <time>2021-11-08T20:16:42.571Z</time>
      </trkpt>
      <trkpt lat="47.542974" lon="7.946965">
        <ele>303.146799</ele>
        <time>2021-11-08T20:16:43.879Z</time>
      </trkpt>
      <trkpt lat="47.542979" lon="7.946989">
        <ele>303.116582</ele>
        <time>2021-11-08T20:16:44.035Z</time>
      </trkpt>
      <trkpt lat="47.542989" lon="7.947104">
        <ele>303.001332</ele>
        <time>2021-11-08T20:16:44.906Z</time>
      </trkpt>
      <trkpt lat="47.542984" lon="7.947304">
        <ele>302.850989</ele>
        <time>2021-11-08T20:16:46.481Z</time>
      </trkpt>
      <trkpt lat="47.542979" lon="7.947370">
        <ele>302.801099</ele>
        <time>2021-11-08T20:16:46.983Z</time>
      </trkpt>
      <trkpt lat="47.542935" lon="7.947564">
        <ele>302.647362</ele>
        <time>2021-11-08T20:16:48.550Z</time>
      </trkpt>
      <trkpt lat="47.542892" lon="7.947789">
        <ele>302.471699</ele>
        <time>2021-11-08T20:16:50.468Z</time>
      </trkpt>
      <trkpt lat="47.542875" lon="7.948001">
        <ele>302.311326</ele>
        <time>2021-11-08T20:16:52.284Z</time>
      </trkpt>
      <trkpt lat="47.542838" lon="7.948225">
        <ele>302.138093</ele>
        <time>2021-11-08T20:16:54.068Z</time>
      </trkpt>
      <trkpt lat="47.542826" lon="7.948298">
        <ele>302.081653</ele>
        <time>2021-11-08T20:16:54.690Z</time>
      </trkpt>
      <trkpt lat="47.542719" lon="7.949175">
        <ele>301.412178</ele>
        <time>2021-11-08T20:17:01.915Z</time>
      </trkpt>
      <trkpt lat="47.542609" lon="7.949914">
        <ele>300.989885</ele>
        <time>2021-11-08T20:17:08.689Z</time>
      </trkpt>
      <trkpt lat="47.542560" lon="7.950202">
        <ele>300.932866</ele>
        <time>2021-11-08T20:17:11.557Z</time>
      </trkpt>
      <trkpt lat="47.542554" lon="7.950231">
        <ele>300.927043</ele>
        <time>2021-11-08T20:17:11.833Z</time>
      </trkpt>
      <trkpt lat="47.542546" lon="7.950274">
        <ele>300.918480</ele>
        <time>2021-11-08T20:17:12.238Z</time>
      </trkpt>
      <trkpt lat="47.542444" lon="7.950687">
        <ele>300.834054</ele>
        <time>2021-11-08T20:17:16.700Z</time>
      </trkpt>
      <trkpt lat="47.542357" lon="7.951037">
        <ele>300.762451</ele>
        <time>2021-11-08T20:17:20.344Z</time>
      </trkpt>
      <trkpt lat="47.542192" lon="7.951713">
        <ele>300.624451</ele>
        <time>2021-11-08T20:17:27.292Z</time>
      </trkpt>
      <trkpt lat="47.542169" lon="7.951815">
        <ele>300.603806</ele>
        <time>2021-11-08T20:17:28.220Z</time>
      </trkpt>
      <trkpt lat="47.541991" lon="7.952667">
        <ele>300.488305</ele>
        <time>2021-11-08T20:17:36.500Z</time>
      </trkpt>
      <trkpt lat="47.541791" lon="7.953601">
        <ele>300.409419</ele>
        <time>2021-11-08T20:17:45.552Z</time>
      </trkpt>
      <trkpt lat="47.541773" lon="7.953695">
        <ele>300.401553</ele>
        <time>2021-11-08T20:17:46.488Z</time>
      </trkpt>
      <trkpt lat="47.541735" lon="7.953892">
        <ele>300.385058</ele>
        <time>2021-11-08T20:17:48.371Z</time>
      </trkpt>
      <trkpt lat="47.541660" lon="7.954250">
        <ele>300.354881</ele>
        <time>2021-11-08T20:17:52.129Z</time>
      </trkpt>
      <trkpt lat="47.541530" lon="7.954936">
        <ele>300.561870</ele>
        <time>2021-11-08T20:17:59.350Z</time>
      </trkpt>
      <trkpt lat="47.541482" lon="7.955294">
        <ele>301.002656</ele>
        <time>2021-11-08T20:18:03.399Z</time>
      </trkpt>
      <trkpt lat="47.541465" lon="7.955512">
        <ele>301.267675</ele>
        <time>2021-11-08T20:18:05.734Z</time>
      </trkpt>
      <trkpt lat="47.541442" lon="7.955866">
        <ele>301.697161</ele>
        <time>2021-11-08T20:18:11.027Z</time>
      </trkpt>
      <trkpt lat="47.541410" lon="7.956569">
        <ele>302.548071</ele>
        <time>2021-11-08T20:18:22.327Z</time>
      </trkpt>
      <trkpt lat="47.541404" lon="7.956677">
        <ele>302.678939</ele>
        <time>2021-11-08T20:18:24.433Z</time>
      </trkpt>
      <trkpt lat="47.541280" lon="7.957569">
        <ele>304.017210</ele>
        <time>2021-11-08T20:18:40.081Z</time>
      </trkpt>
      <trkpt lat="47.541237" lon="7.957756">
        <ele>304.486073</ele>
        <time>2021-11-08T20:18:44.428Z</time>
      </trkpt>
      <trkpt lat="47.541141" lon="7.958127">
        <ele>305.429066</ele>
        <time>2021-11-08T20:18:51.980Z</time>
      </trkpt>
      <trkpt lat="47.540957" lon="7.959132">
        <ele>307.900483</ele>
        <time>2021-11-08T20:19:13.422Z</time>
      </trkpt>
      <trkpt lat="47.540954" lon="7.959705">
        <ele>309.260474</ele>
        <time>2021-11-08T20:19:24.849Z</time>
      </trkpt>
      <trkpt lat="47.540979" lon="7.959950">
        <ele>309.848558</ele>
        <time>2021-11-08T20:19:30.299Z</time>
      </trkpt>
      <trkpt lat="47.541002" lon="7.960092">
        <ele>310.060321</ele>
        <time>2021-11-08T20:19:32.893Z</time>
      </trkpt>
      <trkpt lat="47.541060" lon="7.960321">
        <ele>310.410441</ele>
        <time>2021-11-08T20:19:37.615Z</time>
      </trkpt>
      <trkpt lat="47.541153" lon="7.960814">
        <ele>311.143190</ele>
        <time>2021-11-08T20:19:46.184Z</time>
      </trkpt>
      <trkpt lat="47.541242" lon="7.961294">
        <ele>311.855740</ele>
        <time>2021-11-08T20:19:54.143Z</time>
      </trkpt>
      <trkpt lat="47.541316" lon="7.962197">
        <ele>313.157841</ele>
        <time>2021-11-08T20:20:07.258Z</time>
      </trkpt>
      <trkpt lat="47.541314" lon="7.962377">
        <ele>313.415539</ele>
        <time>2021-11-08T20:20:09.900Z</time>
      </trkpt>
      <trkpt lat="47.541308" lon="7.962513">
        <ele>313.610633</ele>
        <time>2021-11-08T20:20:11.250Z</time>
      </trkpt>
      <trkpt lat="47.541293" lon="7.962730">
        <ele>313.771902</ele>
        <time>2021-11-08T20:20:13.612Z</time>
      </trkpt>
      <trkpt lat="47.541258" lon="7.962975">
        <ele>313.916818</ele>
        <time>2021-11-08T20:20:17.003Z</time>
      </trkpt>
      <trkpt lat="47.541217" lon="7.963187">
        <ele>314.044433</ele>
        <time>2021-11-08T20:20:19.060Z</time>
      </trkpt>
      <trkpt lat="47.541123" lon="7.963520">
        <ele>314.253302</ele>
        <time>2021-11-08T20:20:23.842Z</time>
      </trkpt>
      <trkpt lat="47.541019" lon="7.963815">
        <ele>314.445890</ele>
        <time>2021-11-08T20:20:28.099Z</time>
      </trkpt>
      <trkpt lat="47.541129" lon="7.964008">
        <ele>314.592058</ele>
        <time>2021-11-08T20:20:30.832Z</time>
      </trkpt>
      <trkpt lat="47.541169" lon="7.964123">
        <ele>314.666921</ele>
        <time>2021-11-08T20:20:31.998Z</time>
      </trkpt>
      <trkpt lat="47.541095" lon="7.964204">
        <ele>314.745794</ele>
        <time>2021-11-08T20:20:34.397Z</time>
      </trkpt>
      <trkpt lat="47.540896" lon="7.964711">
        <ele>315.085174</ele>
        <time>2021-11-08T20:20:41.425Z</time>
      </trkpt>
      <trkpt lat="47.540214" lon="7.967628">
        <ele>317.056045</ele>
        <time>2021-11-08T20:21:19.272Z</time>
      </trkpt>
      <trkpt lat="47.539783" lon="7.969587">
        <ele>319.409936</ele>
        <time>2021-11-08T20:21:48.971Z</time>
      </trkpt>
      <trkpt lat="47.539262" lon="7.971768">
        <ele>322.954712</ele>
        <time>2021-11-08T20:22:27.922Z</time>
      </trkpt>
      <trkpt lat="47.538706" lon="7.974459">
        <ele>327.278986</ele>
        <time>2021-11-08T20:23:13.719Z</time>
      </trkpt>
      <trkpt lat="47.538242" lon="7.976347">
        <ele>329.937154</ele>
        <time>2021-11-08T20:23:44.537Z</time>
      </trkpt>
      <trkpt lat="47.538107" lon="7.977240">
        <ele>331.075483</ele>
        <time>2021-11-08T20:23:58.230Z</time>
      </trkpt>
      <trkpt lat="47.537955" lon="7.978125">
        <ele>331.550005</ele>
        <time>2021-11-08T20:24:11.774Z</time>
      </trkpt>
      <trkpt lat="47.537583" lon="7.979760">
        <ele>331.704874</ele>
        <time>2021-11-08T20:24:30.072Z</time>
      </trkpt>
      <trkpt lat="47.537461" lon="7.980118">
        <ele>331.666882</ele>
        <time>2021-11-08T20:24:33.080Z</time>
      </trkpt>
      <trkpt lat="47.537107" lon="7.981082">
        <ele>329.459080</ele>
        <time>2021-11-08T20:24:40.891Z</time>
      </trkpt>
      <trkpt lat="47.536959" lon="7.981602">
        <ele>328.323728</ele>
        <time>2021-11-08T20:24:44.702Z</time>
      </trkpt>
      <trkpt lat="47.536896" lon="7.981697">
        <ele>328.055813</ele>
        <time>2021-11-08T20:24:45.614Z</time>
      </trkpt>
      <trkpt lat="47.536842" lon="7.981878">
        <ele>327.657687</ele>
        <time>2021-11-08T20:24:46.924Z</time>
      </trkpt>
      <trkpt lat="47.536775" lon="7.982096">
        <ele>327.175784</ele>
        <time>2021-11-08T20:24:48.493Z</time>
      </trkpt>
      <trkpt lat="47.536764" lon="7.982225">
        <ele>326.914187</ele>
        <time>2021-11-08T20:24:49.364Z</time>
      </trkpt>
      <trkpt lat="47.536530" lon="7.982859">
        <ele>325.368005</ele>
        <time>2021-11-08T20:24:54.121Z</time>
      </trkpt>
      <trkpt lat="47.536410" lon="7.983244">
        <ele>324.428844</ele>
        <time>2021-11-08T20:24:56.963Z</time>
      </trkpt>
      <trkpt lat="47.536849" lon="7.983808">
        <ele>322.522463</ele>
        <time>2021-11-08T20:25:02.796Z</time>
      </trkpt>
      <trkpt lat="47.537175" lon="7.984220">
        <ele>321.116652</ele>
        <time>2021-11-08T20:25:07.350Z</time>
      </trkpt>
      <trkpt lat="47.537732" lon="7.984941">
        <ele>319.234813</ele>
        <time>2021-11-08T20:25:14.940Z</time>
      </trkpt>
      <trkpt lat="47.537773" lon="7.984992">
        <ele>319.112719</ele>
        <time>2021-11-08T20:25:15.604Z</time>
      </trkpt>
      <trkpt lat="47.538160" lon="7.985490">
        <ele>317.943663</ele>
        <time>2021-11-08T20:25:21.022Z</time>
      </trkpt>
      <trkpt lat="47.538208" lon="7.985592">
        <ele>317.752244</ele>
        <time>2021-11-08T20:25:21.913Z</time>
      </trkpt>
      <trkpt lat="47.537884" lon="7.985939">
        <ele>316.840477</ele>
        <time>2021-11-08T20:25:26.414Z</time>
      </trkpt>
      <trkpt lat="47.537812" lon="7.986127">
        <ele>316.507713</ele>
        <time>2021-11-08T20:25:28.410Z</time>
      </trkpt>
      <trkpt lat="47.537815" lon="7.986191">
        <ele>316.408945</ele>
        <time>2021-11-08T20:25:28.809Z</time>
      </trkpt>
      <trkpt lat="47.537821" lon="7.986433">
        <ele>316.251482</ele>
        <time>2021-11-08T20:25:30.591Z</time>
      </trkpt>
      <trkpt lat="47.537897" lon="7.986428">
        <ele>316.188113</ele>
        <time>2021-11-08T20:25:31.804Z</time>
      </trkpt>
      <trkpt lat="47.538277" lon="7.986431">
        <ele>315.871575</ele>
        <time>2021-11-08T20:25:36.136Z</time>
      </trkpt>
      <trkpt lat="47.538514" lon="7.986428">
        <ele>315.674151</ele>
        <time>2021-11-08T20:25:38.733Z</time>
      </trkpt>
      <trkpt lat="47.538630" lon="7.986438">
        <ele>315.577362</ele>
        <time>2021-11-08T20:25:40.668Z</time>
      </trkpt>
      <trkpt lat="47.539274" lon="7.986488">
        <ele>315.040185</ele>
        <time>2021-11-08T20:25:49.141Z</time>
      </trkpt>
      <trkpt lat="47.539415" lon="7.986507">
        <ele>314.922249</ele>
        <time>2021-11-08T20:25:51.862Z</time>
      </trkpt>
      <trkpt lat="47.539549" lon="7.986535">
        <ele>314.860811</ele>
        <time>2021-11-08T20:25:53.918Z</time>
      </trkpt>
      <trkpt lat="47.539952" lon="7.986630">
        <ele>314.778584</ele>
        <time>2021-11-08T20:26:00.569Z</time>
      </trkpt>
      <trkpt lat="47.540347" lon="7.986737">
        <ele>314.697670</ele>
        <time>2021-11-08T20:26:06.263Z</time>
      </trkpt>
      <trkpt lat="47.540335" lon="7.986933">
        <ele>314.670899</ele>
        <time>2021-11-08T20:26:08.101Z</time>
      </trkpt>
      <trkpt lat="47.540321" lon="7.987087">
        <ele>314.649761</ele>
        <time>2021-11-08T20:26:09.425Z</time>
      </trkpt>
      <trkpt lat="47.539978" lon="7.988189">
        <ele>314.434029</ele>
        <time>2021-11-08T20:26:20.611Z</time>
      </trkpt>
      <trkpt lat="47.539990" lon="7.989097">
        <ele>314.102238</ele>
        <time>2021-11-08T20:26:28.447Z</time>
      </trkpt>
      <trkpt lat="47.540011" lon="7.990131">
        <ele>313.724308</ele>
        <time>2021-11-08T20:26:37.544Z</time>
      </trkpt>
      <trkpt lat="47.540018" lon="7.990553">
        <ele>313.570089</ele>
        <time>2021-11-08T20:26:41.296Z</time>
      </trkpt>
      <trkpt lat="47.540056" lon="7.990982">
        <ele>313.553092</ele>
        <time>2021-11-08T20:26:45.212Z</time>
      </trkpt>
      <trkpt lat="47.540104" lon="7.991287">
        <ele>313.563476</ele>
        <time>2021-11-08T20:26:48.099Z</time>
      </trkpt>
      <trkpt lat="47.540140" lon="7.991504">
        <ele>313.570886</ele>
        <time>2021-11-08T20:27:04.715Z</time>
      </trkpt>
      <trkpt lat="47.540194" lon="7.991768">
        <ele>313.580032</ele>
        <time>2021-11-08T20:27:07.352Z</time>
      </trkpt>
      <trkpt lat="47.540262" lon="7.992244">
        <ele>313.596165</ele>
        <time>2021-11-08T20:27:12.147Z</time>
      </trkpt>
      <trkpt lat="47.540316" lon="7.993620">
        <ele>313.966398</ele>
        <time>2021-11-08T20:27:27.970Z</time>
      </trkpt>
      <trkpt lat="47.540089" lon="7.994896">
        <ele>315.177004</ele>
        <time>2021-11-08T20:27:44.695Z</time>
      </trkpt>
      <trkpt lat="47.540013" lon="7.995140">
        <ele>315.423537</ele>
        <time>2021-11-08T20:27:48.622Z</time>
      </trkpt>
      <trkpt lat="47.539876" lon="7.995796">
        <ele>316.053514</ele>
        <time>2021-11-08T20:27:58.249Z</time>
      </trkpt>
      <trkpt lat="47.539838" lon="7.996117">
        <ele>316.988437</ele>
        <time>2021-11-08T20:28:03.986Z</time>
      </trkpt>
      <trkpt lat="47.539726" lon="7.997265">
        <ele>320.483078</ele>
        <time>2021-11-08T20:28:28.135Z</time>
      </trkpt>
      <trkpt lat="47.539590" lon="7.998122">
        <ele>323.135446</ele>
        <time>2021-11-08T20:28:48.170Z</time>
      </trkpt>
      <trkpt lat="47.539569" lon="7.998315">
        <ele>323.724426</ele>
        <time>2021-11-08T20:28:53.862Z</time>
      </trkpt>
      <trkpt lat="47.539365" lon="8.001150">
        <ele>337.508683</ele>
        <time>2021-11-08T20:30:20.563Z</time>
      </trkpt>
      <trkpt lat="47.539400" lon="8.001871">
        <ele>340.359371</ele>
        <time>2021-11-08T20:30:42.539Z</time>
      </trkpt>
      <trkpt lat="47.539437" lon="8.002525">
        <ele>342.947534</ele>
        <time>2021-11-08T20:31:01.009Z</time>
      </trkpt>
      <trkpt lat="47.539437" lon="8.002963">
        <ele>344.674835</ele>
        <time>2021-11-08T20:31:12.006Z</time>
      </trkpt>
      <trkpt lat="47.539434" lon="8.003156">
        <ele>345.436154</ele>
        <time>2021-11-08T20:31:16.687Z</time>
      </trkpt>
      <trkpt lat="47.539492" lon="8.004516">
        <ele>348.312509</ele>
        <time>2021-11-08T20:31:43.561Z</time>
      </trkpt>
      <trkpt lat="47.539590" lon="8.005890">
        <ele>349.280936</ele>
        <time>2021-11-08T20:31:58.095Z</time>
      </trkpt>
      <trkpt lat="47.539569" lon="8.007914">
        <ele>349.261442</ele>
        <time>2021-11-08T20:32:14.869Z</time>
      </trkpt>
      <trkpt lat="47.539645" lon="8.009866">
        <ele>349.511155</ele>
        <time>2021-11-08T20:32:35.698Z</time>
      </trkpt>
      <trkpt lat="47.539703" lon="8.011107">
        <ele>350.345544</ele>
        <time>2021-11-08T20:32:52.311Z</time>
      </trkpt>
      <trkpt lat="47.539798" lon="8.012369">
        <ele>351.191163</ele>
        <time>2021-11-08T20:33:10.773Z</time>
      </trkpt>
      <trkpt lat="47.539903" lon="8.015200">
        <ele>351.701058</ele>
        <time>2021-11-08T20:33:44.887Z</time>
      </trkpt>
      <trkpt lat="47.539908" lon="8.015397">
        <ele>351.504430</ele>
        <time>2021-11-08T20:33:47.160Z</time>
      </trkpt>
      <trkpt lat="47.539918" lon="8.015722">
        <ele>351.179937</ele>
        <time>2021-11-08T20:33:49.662Z</time>
      </trkpt>
      <trkpt lat="47.539979" lon="8.017566">
        <ele>347.762933</ele>
        <time>2021-11-08T20:34:02.537Z</time>
      </trkpt>
      <trkpt lat="47.540012" lon="8.018657">
        <ele>343.411089</ele>
        <time>2021-11-08T20:34:09.274Z</time>
      </trkpt>
      <trkpt lat="47.540031" lon="8.019456">
        <ele>340.225213</ele>
        <time>2021-11-08T20:34:14.092Z</time>
      </trkpt>
      <trkpt lat="47.540052" lon="8.019825">
        <ele>338.675357</ele>
        <time>2021-11-08T20:34:16.317Z</time>
      </trkpt>
      <trkpt lat="47.540098" lon="8.020321">
        <ele>336.382855</ele>
        <time>2021-11-08T20:34:19.311Z</time>
      </trkpt>
      <trkpt lat="47.540134" lon="8.020585">
        <ele>335.149591</ele>
        <time>2021-11-08T20:34:20.907Z</time>
      </trkpt>
      <trkpt lat="47.540204" lon="8.020975">
        <ele>333.301753</ele>
        <time>2021-11-08T20:34:23.329Z</time>
      </trkpt>
      <trkpt lat="47.540354" lon="8.022332">
        <ele>327.028590</ele>
        <time>2021-11-08T20:34:31.773Z</time>
      </trkpt>
      <trkpt lat="47.540454" lon="8.023022">
        <ele>325.582370</ele>
        <time>2021-11-08T20:34:36.324Z</time>
      </trkpt>
      <trkpt lat="47.540537" lon="8.023536">
        <ele>324.499328</ele>
        <time>2021-11-08T20:34:39.938Z</time>
      </trkpt>
      <trkpt lat="47.540490" lon="8.024315">
        <ele>322.896581</ele>
        <time>2021-11-08T20:34:45.578Z</time>
      </trkpt>
      <trkpt lat="47.540408" lon="8.025334">
        <ele>321.439714</ele>
        <time>2021-11-08T20:34:53.771Z</time>
      </trkpt>
      <trkpt lat="47.540306" lon="8.026756">
        <ele>320.894655</ele>
        <time>2021-11-08T20:35:06.672Z</time>
      </trkpt>
      <trkpt lat="47.540273" lon="8.028579">
        <ele>320.677145</ele>
        <time>2021-11-08T20:35:24.541Z</time>
      </trkpt>
      <trkpt lat="47.540275" lon="8.029790">
        <ele>320.807771</ele>
        <time>2021-11-08T20:35:37.111Z</time>
      </trkpt>
      <trkpt lat="47.540324" lon="8.030594">
        <ele>321.181370</ele>
        <time>2021-11-08T20:35:46.112Z</time>
      </trkpt>
      <trkpt lat="47.540394" lon="8.031575">
        <ele>322.142913</ele>
        <time>2021-11-08T20:35:57.777Z</time>
      </trkpt>
      <trkpt lat="47.541006" lon="8.038351">
        <ele>330.257600</ele>
        <time>2021-11-08T20:37:38.507Z</time>
      </trkpt>
      <trkpt lat="47.541015" lon="8.038511">
        <ele>330.653050</ele>
        <time>2021-11-08T20:37:41.940Z</time>
      </trkpt>
      <trkpt lat="47.541029" lon="8.038776">
        <ele>331.307749</ele>
        <time>2021-11-08T20:37:49.070Z</time>
      </trkpt>
      <trkpt lat="47.540973" lon="8.039326">
        <ele>332.677737</ele>
        <time>2021-11-08T20:38:02.979Z</time>
      </trkpt>
      <trkpt lat="47.540755" lon="8.039911">
        <ele>334.323573</ele>
        <time>2021-11-08T20:38:18.481Z</time>
      </trkpt>
      <trkpt lat="47.540612" lon="8.040244">
        <ele>335.295654</ele>
        <time>2021-11-08T20:38:26.615Z</time>
      </trkpt>
      <trkpt lat="47.540564" lon="8.040358">
        <ele>335.626581</ele>
        <time>2021-11-08T20:38:28.535Z</time>
      </trkpt>
      <trkpt lat="47.540240" lon="8.040995">
        <ele>336.315229</ele>
        <time>2021-11-08T20:38:39.872Z</time>
      </trkpt>
      <trkpt lat="47.540116" lon="8.041253">
        <ele>336.241379</ele>
        <time>2021-11-08T20:38:43.355Z</time>
      </trkpt>
      <trkpt lat="47.540079" lon="8.041350">
        <ele>336.215399</ele>
        <time>2021-11-08T20:38:44.508Z</time>
      </trkpt>
      <trkpt lat="47.540031" lon="8.041477">
        <ele>336.181459</ele>
        <time>2021-11-08T20:38:45.704Z</time>
      </trkpt>
      <trkpt lat="47.539998" lon="8.041644">
        <ele>336.140884</ele>
        <time>2021-11-08T20:38:48.042Z</time>
      </trkpt>
      <trkpt lat="47.539983" lon="8.041866">
        <ele>336.088858</ele>
        <time>2021-11-08T20:38:51.386Z</time>
      </trkpt>
      <trkpt lat="47.539991" lon="8.042065">
        <ele>336.042372</ele>
        <time>2021-11-08T20:38:55.946Z</time>
      </trkpt>
      <trkpt lat="47.540021" lon="8.042268">
        <ele>335.993915</ele>
        <time>2021-11-08T20:39:01.075Z</time>
      </trkpt>
      <trkpt lat="47.540034" lon="8.042303">
        <ele>335.984600</ele>
        <time>2021-11-08T20:39:01.925Z</time>
      </trkpt>
      <trkpt lat="47.540072" lon="8.042391">
        <ele>335.960241</ele>
        <time>2021-11-08T20:39:04.232Z</time>
      </trkpt>
      <trkpt lat="47.540094" lon="8.042446">
        <ele>335.945334</ele>
        <time>2021-11-08T20:39:04.688Z</time>
      </trkpt>
      <trkpt lat="47.540115" lon="8.042499">
        <ele>335.931003</ele>
        <time>2021-11-08T20:39:05.090Z</time>
      </trkpt>
      <trkpt lat="47.540230" lon="8.042774">
        <ele>335.855571</ele>
        <time>2021-11-08T20:39:07.533Z</time>
      </trkpt>
      <trkpt lat="47.540311" lon="8.043099">
        <ele>335.767691</ele>
        <time>2021-11-08T20:39:09.941Z</time>
      </trkpt>
      <trkpt lat="47.540358" lon="8.043349">
        <ele>335.692619</ele>
        <time>2021-11-08T20:39:11.850Z</time>
      </trkpt>
      <trkpt lat="47.540392" lon="8.043542">
        <ele>335.634918</ele>
        <time>2021-11-08T20:39:13.156Z</time>
      </trkpt>
      <trkpt lat="47.540394" lon="8.043626">
        <ele>335.610603</ele>
        <time>2021-11-08T20:39:13.727Z</time>
      </trkpt>
      <trkpt lat="47.540360" lon="8.044061">
        <ele>335.483925</ele>
        <time>2021-11-08T20:39:16.880Z</time>
      </trkpt>
      <trkpt lat="47.540345" lon="8.044329">
        <ele>335.406131</ele>
        <time>2021-11-08T20:39:19.143Z</time>
      </trkpt>
      <trkpt lat="47.540316" lon="8.044416">
        <ele>335.378063</ele>
        <time>2021-11-08T20:39:20.253Z</time>
      </trkpt>
      <trkpt lat="47.540105" lon="8.044383">
        <ele>335.287142</ele>
        <time>2021-11-08T20:39:23.463Z</time>
      </trkpt>
      <trkpt lat="47.539769" lon="8.044372">
        <ele>335.143124</ele>
        <time>2021-11-08T20:39:30.444Z</time>
      </trkpt>
      <trkpt lat="47.539485" lon="8.044571">
        <ele>335.147826</ele>
        <time>2021-11-08T20:39:38.205Z</time>
      </trkpt>
      <trkpt lat="47.539357" lon="8.044726">
        <ele>335.471322</ele>
        <time>2021-11-08T20:39:42.280Z</time>
      </trkpt>
      <trkpt lat="47.539168" lon="8.044994">
        <ele>335.983268</ele>
        <time>2021-11-08T20:39:48.665Z</time>
      </trkpt>
      <trkpt lat="47.539049" lon="8.045146">
        <ele>336.290729</ele>
        <time>2021-11-08T20:39:52.783Z</time>
      </trkpt>
      <trkpt lat="47.538984" lon="8.045208">
        <ele>336.442002</ele>
        <time>2021-11-08T20:39:54.360Z</time>
      </trkpt>
      <trkpt lat="47.538912" lon="8.045281">
        <ele>336.612726</ele>
        <time>2021-11-08T20:39:56.460Z</time>
      </trkpt>
      <trkpt lat="47.538763" lon="8.045382">
        <ele>336.933351</ele>
        <time>2021-11-08T20:40:00.372Z</time>
      </trkpt>
      <trkpt lat="47.538479" lon="8.045444">
        <ele>337.495057</ele>
        <time>2021-11-08T20:40:06.623Z</time>
      </trkpt>
      <trkpt lat="47.538340" lon="8.045430">
        <ele>337.767667</ele>
        <time>2021-11-08T20:40:09.823Z</time>
      </trkpt>
      <trkpt lat="47.538294" lon="8.045418">
        <ele>337.859060</ele>
        <time>2021-11-08T20:40:10.662Z</time>
      </trkpt>
      <trkpt lat="47.538203" lon="8.045387">
        <ele>338.041768</ele>
        <time>2021-11-08T20:40:12.771Z</time>
      </trkpt>
      <trkpt lat="47.537686" lon="8.045112">
        <ele>338.836446</ele>
        <time>2021-11-08T20:40:24.410Z</time>
      </trkpt>
      <trkpt lat="47.537460" lon="8.044932">
        <ele>339.088971</ele>
        <time>2021-11-08T20:40:29.638Z</time>
      </trkpt>
      <trkpt lat="47.536844" lon="8.044412">
        <ele>339.786725</ele>
        <time>2021-11-08T20:40:42.510Z</time>
      </trkpt>
      <trkpt lat="47.536646" lon="8.044284">
        <ele>339.999331</ele>
        <time>2021-11-08T20:40:45.667Z</time>
      </trkpt>
      <trkpt lat="47.536508" lon="8.044238">
        <ele>340.138536</ele>
        <time>2021-11-08T20:40:48.408Z</time>
      </trkpt>
      <trkpt lat="47.536364" lon="8.044230">
        <ele>340.280349</ele>
        <time>2021-11-08T20:40:50.534Z</time>
      </trkpt>
      <trkpt lat="47.536130" lon="8.044277">
        <ele>340.527452</ele>
        <time>2021-11-08T20:40:54.968Z</time>
      </trkpt>
      <trkpt lat="47.534992" lon="8.044570">
        <ele>341.752314</ele>
        <time>2021-11-08T20:41:16.686Z</time>
      </trkpt>
      <trkpt lat="47.534737" lon="8.044640">
        <ele>342.027328</ele>
        <time>2021-11-08T20:41:22.095Z</time>
      </trkpt>
      <trkpt lat="47.534636" lon="8.044665">
        <ele>342.135917</ele>
        <time>2021-11-08T20:41:24.113Z</time>
      </trkpt>
      <trkpt lat="47.534374" lon="8.044734">
        <ele>342.572480</ele>
        <time>2021-11-08T20:41:29.646Z</time>
      </trkpt>
      <trkpt lat="47.534054" lon="8.044829">
        <ele>343.203123</ele>
        <time>2021-11-08T20:41:36.454Z</time>
      </trkpt>
      <trkpt lat="47.533961" lon="8.044883">
        <ele>343.396145</ele>
        <time>2021-11-08T20:41:38.560Z</time>
      </trkpt>
      <trkpt lat="47.533862" lon="8.044961">
        <ele>343.612827</ele>
        <time>2021-11-08T20:41:41.050Z</time>
      </trkpt>
      <trkpt lat="47.533634" lon="8.045197">
        <ele>344.150320</ele>
        <time>2021-11-08T20:41:47.257Z</time>
      </trkpt>
      <trkpt lat="47.533321" lon="8.045604">
        <ele>344.955148</ele>
        <time>2021-11-08T20:41:57.123Z</time>
      </trkpt>
      <trkpt lat="47.533268" lon="8.045675">
        <ele>345.093237</ele>
        <time>2021-11-08T20:41:58.959Z</time>
      </trkpt>
      <trkpt lat="47.532987" lon="8.046028">
        <ele>345.830294</ele>
        <time>2021-11-08T20:42:07.964Z</time>
      </trkpt>
      <trkpt lat="47.532368" lon="8.046806">
        <ele>347.795063</ele>
        <time>2021-11-08T20:42:28.040Z</time>
      </trkpt>
      <trkpt lat="47.532024" lon="8.047221">
        <ele>348.868820</ele>
        <time>2021-11-08T20:42:39.287Z</time>
      </trkpt>
      <trkpt lat="47.531748" lon="8.047580">
        <ele>349.757804</ele>
        <time>2021-11-08T20:42:48.368Z</time>
      </trkpt>
      <trkpt lat="47.531509" lon="8.047769">
        <ele>350.344872</ele>
        <time>2021-11-08T20:42:54.782Z</time>
      </trkpt>
      <trkpt lat="47.530578" lon="8.048313">
        <ele>352.298242</ele>
        <time>2021-11-08T20:43:16.579Z</time>
      </trkpt>
      <trkpt lat="47.530227" lon="8.048487">
        <ele>353.020659</ele>
        <time>2021-11-08T20:43:24.652Z</time>
      </trkpt>
      <trkpt lat="47.529656" lon="8.048773">
        <ele>354.502265</ele>
        <time>2021-11-08T20:43:38.312Z</time>
      </trkpt>
      <trkpt lat="47.528839" lon="8.049183">
        <ele>357.004348</ele>
        <time>2021-11-08T20:44:00.745Z</time>
      </trkpt>
      <trkpt lat="47.527953" lon="8.049615">
        <ele>359.869624</ele>
        <time>2021-11-08T20:44:28.385Z</time>
      </trkpt>
      <trkpt lat="47.527655" lon="8.049761">
        <ele>360.937501</ele>
        <time>2021-11-08T20:44:38.120Z</time>
      </trkpt>
      <trkpt lat="47.525100" lon="8.051220">
        <ele>369.654979</ele>
        <time>2021-11-08T20:45:53.406Z</time>
      </trkpt>
      <trkpt lat="47.524373" lon="8.051538">
        <ele>371.822024</ele>
        <time>2021-11-08T20:46:11.901Z</time>
      </trkpt>
      <trkpt lat="47.523941" lon="8.051728">
        <ele>373.079066</ele>
        <time>2021-11-08T20:46:23.142Z</time>
      </trkpt>
      <trkpt lat="47.523089" lon="8.052118">
        <ele>375.658273</ele>
        <time>2021-11-08T20:46:46.604Z</time>
      </trkpt>
      <trkpt lat="47.522238" lon="8.052476">
        <ele>379.204855</ele>
        <time>2021-11-08T20:47:13.449Z</time>
      </trkpt>
      <trkpt lat="47.521902" lon="8.052655">
        <ele>380.636370</ele>
        <time>2021-11-08T20:47:24.544Z</time>
      </trkpt>
      <trkpt lat="47.521761" lon="8.052748">
        <ele>381.255164</ele>
        <time>2021-11-08T20:47:29.338Z</time>
      </trkpt>
      <trkpt lat="47.521555" lon="8.052973">
        <ele>382.281347</ele>
        <time>2021-11-08T20:47:37.292Z</time>
      </trkpt>
      <trkpt lat="47.521510" lon="8.053033">
        <ele>382.524103</ele>
        <time>2021-11-08T20:47:39.506Z</time>
      </trkpt>
      <trkpt lat="47.521468" lon="8.053086">
        <ele>382.790388</ele>
        <time>2021-11-08T20:47:41.478Z</time>
      </trkpt>
      <trkpt lat="47.521342" lon="8.053276">
        <ele>383.693996</ele>
        <time>2021-11-08T20:47:47.504Z</time>
      </trkpt>
      <trkpt lat="47.520983" lon="8.054002">
        <ele>386.747355</ele>
        <time>2021-11-08T20:48:10.563Z</time>
      </trkpt>
      <trkpt lat="47.520622" lon="8.054507">
        <ele>389.242726</ele>
        <time>2021-11-08T20:48:27.206Z</time>
      </trkpt>
      <trkpt lat="47.520495" lon="8.054640">
        <ele>390.024333</ele>
        <time>2021-11-08T20:48:32.151Z</time>
      </trkpt>
      <trkpt lat="47.520447" lon="8.054686">
        <ele>390.311625</ele>
        <time>2021-11-08T20:48:35.296Z</time>
      </trkpt>
      <trkpt lat="47.520200" lon="8.054838">
        <ele>391.645434</ele>
        <time>2021-11-08T20:48:44.078Z</time>
      </trkpt>
      <trkpt lat="47.520138" lon="8.054877">
        <ele>391.915384</ele>
        <time>2021-11-08T20:48:46.856Z</time>
      </trkpt>
      <trkpt lat="47.520109" lon="8.054903">
        <ele>392.051242</ele>
        <time>2021-11-08T20:48:48.616Z</time>
      </trkpt>
      <trkpt lat="47.519792" lon="8.055311">
        <ele>393.734410</ele>
        <time>2021-11-08T20:49:01.950Z</time>
      </trkpt>
      <trkpt lat="47.519301" lon="8.056122">
        <ele>396.682142</ele>
        <time>2021-11-08T20:49:25.486Z</time>
      </trkpt>
      <trkpt lat="47.519217" lon="8.056276">
        <ele>397.217889</ele>
        <time>2021-11-08T20:49:29.165Z</time>
      </trkpt>
      <trkpt lat="47.519179" lon="8.056358">
        <ele>397.487037</ele>
        <time>2021-11-08T20:49:30.821Z</time>
      </trkpt>
      <trkpt lat="47.518693" lon="8.057336">
        <ele>400.758545</ele>
        <time>2021-11-08T20:49:52.092Z</time>
      </trkpt>
      <trkpt lat="47.518370" lon="8.058169">
        <ele>403.338682</ele>
        <time>2021-11-08T20:50:11.081Z</time>
      </trkpt>
      <trkpt lat="47.518297" lon="8.058380">
        <ele>403.975503</ele>
        <time>2021-11-08T20:50:17.797Z</time>
      </trkpt>
      <trkpt lat="47.518245" lon="8.058536">
        <ele>404.442805</ele>
        <time>2021-11-08T20:50:20.632Z</time>
      </trkpt>
      <trkpt lat="47.518181" lon="8.058723">
        <ele>405.005934</ele>
        <time>2021-11-08T20:50:25.721Z</time>
      </trkpt>
      <trkpt lat="47.518153" lon="8.058825">
        <ele>405.301691</ele>
        <time>2021-11-08T20:50:29.001Z</time>
      </trkpt>
      <trkpt lat="47.518126" lon="8.059042">
        <ele>405.894398</ele>
        <time>2021-11-08T20:50:33.165Z</time>
      </trkpt>
      <trkpt lat="47.518110" lon="8.059176">
        <ele>406.450600</ele>
        <time>2021-11-08T20:50:36.055Z</time>
      </trkpt>
      <trkpt lat="47.518111" lon="8.059250">
        <ele>406.778860</ele>
        <time>2021-11-08T20:50:38.413Z</time>
      </trkpt>
      <trkpt lat="47.518107" lon="8.059678">
        <ele>408.677247</ele>
        <time>2021-11-08T20:50:48.163Z</time>
      </trkpt>
      <trkpt lat="47.518115" lon="8.059928">
        <ele>409.787256</ele>
        <time>2021-11-08T20:50:55.512Z</time>
      </trkpt>
      <trkpt lat="47.518145" lon="8.060201">
        <ele>411.013950</ele>
        <time>2021-11-08T20:51:01.635Z</time>
      </trkpt>
      <trkpt lat="47.518185" lon="8.060410">
        <ele>411.977377</ele>
        <time>2021-11-08T20:51:08.566Z</time>
      </trkpt>
      <trkpt lat="47.518168" lon="8.060542">
        <ele>412.573354</ele>
        <time>2021-11-08T20:51:12.084Z</time>
      </trkpt>
      <trkpt lat="47.518153" lon="8.060621">
        <ele>412.937307</ele>
        <time>2021-11-08T20:51:14.249Z</time>
      </trkpt>
      <trkpt lat="47.518109" lon="8.060687">
        <ele>413.348612</ele>
        <time>2021-11-08T20:51:17.567Z</time>
      </trkpt>
      <trkpt lat="47.518058" lon="8.060729">
        <ele>413.731843</ele>
        <time>2021-11-08T20:51:21.137Z</time>
      </trkpt>
      <trkpt lat="47.517920" lon="8.060669">
        <ele>414.676348</ele>
        <time>2021-11-08T20:51:28.617Z</time>
      </trkpt>
      <trkpt lat="47.517832" lon="8.060561">
        <ele>415.426942</ele>
        <time>2021-11-08T20:51:34.122Z</time>
      </trkpt>
      <trkpt lat="47.517782" lon="8.060388">
        <ele>416.261517</ele>
        <time>2021-11-08T20:51:41.972Z</time>
      </trkpt>
      <trkpt lat="47.517774" lon="8.060359">
        <ele>416.400450</ele>
        <time>2021-11-08T20:51:43.050Z</time>
      </trkpt>
      <trkpt lat="47.517670" lon="8.060139">
        <ele>417.591447</ele>
        <time>2021-11-08T20:51:51.579Z</time>
      </trkpt>
      <trkpt lat="47.517603" lon="8.060042">
        <ele>418.234070</ele>
        <time>2021-11-08T20:51:57.485Z</time>
      </trkpt>
      <trkpt lat="47.517499" lon="8.059959">
        <ele>419.059342</ele>
        <time>2021-11-08T20:52:03.808Z</time>
      </trkpt>
      <trkpt lat="47.517045" lon="8.059678">
        <ele>422.496568</ele>
        <time>2021-11-08T20:52:27.442Z</time>
      </trkpt>
      <trkpt lat="47.516879" lon="8.059595">
        <ele>423.720448</ele>
        <time>2021-11-08T20:52:36.657Z</time>
      </trkpt>
      <trkpt lat="47.516592" lon="8.059424">
        <ele>425.881441</ele>
        <time>2021-11-08T20:52:50.494Z</time>
      </trkpt>
      <trkpt lat="47.515549" lon="8.058544">
        <ele>434.344712</ele>
        <time>2021-11-08T20:53:45.997Z</time>
      </trkpt>
      <trkpt lat="47.514980" lon="8.057838">
        <ele>439.633234</ele>
        <time>2021-11-08T20:54:18.989Z</time>
      </trkpt>
      <trkpt lat="47.514913" lon="8.057730">
        <ele>440.338798</ele>
        <time>2021-11-08T20:54:23.908Z</time>
      </trkpt>
      <trkpt lat="47.514860" lon="8.057684">
        <ele>440.776444</ele>
        <time>2021-11-08T20:54:28.618Z</time>
      </trkpt>
      <trkpt lat="47.513979" lon="8.057155">
        <ele>449.525141</ele>
        <time>2021-11-08T20:55:21.388Z</time>
      </trkpt>
      <trkpt lat="47.513766" lon="8.057043">
        <ele>451.859681</ele>
        <time>2021-11-08T20:55:35.814Z</time>
      </trkpt>
      <trkpt lat="47.513354" lon="8.056772">
        <ele>456.515966</ele>
        <time>2021-11-08T20:56:05.146Z</time>
      </trkpt>
      <trkpt lat="47.512855" lon="8.056583">
        <ele>461.841671</ele>
        <time>2021-11-08T20:56:38.694Z</time>
      </trkpt>
      <trkpt lat="47.512296" lon="8.056517">
        <ele>467.966430</ele>
        <time>2021-11-08T20:57:16.904Z</time>
      </trkpt>
      <trkpt lat="47.511847" lon="8.056597">
        <ele>472.905775</ele>
        <time>2021-11-08T20:57:45.158Z</time>
      </trkpt>
      <trkpt lat="47.510829" lon="8.056804">
        <ele>484.004848</ele>
        <time>2021-11-08T20:58:49.403Z</time>
      </trkpt>
      <trkpt lat="47.510082" lon="8.056966">
        <ele>491.879408</ele>
        <time>2021-11-08T20:59:37.123Z</time>
      </trkpt>
      <trkpt lat="47.509954" lon="8.057004">
        <ele>493.241060</ele>
        <time>2021-11-08T20:59:45.021Z</time>
      </trkpt>
      <trkpt lat="47.509761" lon="8.057079">
        <ele>495.322295</ele>
        <time>2021-11-08T20:59:57.731Z</time>
      </trkpt>
      <trkpt lat="47.509137" lon="8.057413">
        <ele>501.648127</ele>
        <time>2021-11-08T21:00:39.035Z</time>
      </trkpt>
      <trkpt lat="47.508257" lon="8.058324">
        <ele>509.683114</ele>
        <time>2021-11-08T21:01:35.709Z</time>
      </trkpt>
      <trkpt lat="47.508101" lon="8.058498">
        <ele>511.144641</ele>
        <time>2021-11-08T21:01:44.671Z</time>
      </trkpt>
      <trkpt lat="47.507796" lon="8.058923">
        <ele>513.950867</ele>
        <time>2021-11-08T21:02:00.434Z</time>
      </trkpt>
      <trkpt lat="47.507442" lon="8.059522">
        <ele>516.040440</ele>
        <time>2021-11-08T21:02:18.888Z</time>
      </trkpt>
      <trkpt lat="47.507282" lon="8.059981">
        <ele>517.396526</ele>
        <time>2021-11-08T21:02:30.966Z</time>
      </trkpt>
      <trkpt lat="47.507095" lon="8.060549">
        <ele>519.055485</ele>
        <time>2021-11-08T21:02:46.059Z</time>
      </trkpt>
      <trkpt lat="47.506868" lon="8.061294">
        <ele>521.043293</ele>
        <time>2021-11-08T21:03:04.954Z</time>
      </trkpt>
      <trkpt lat="47.506834" lon="8.061792">
        <ele>522.019380</ele>
        <time>2021-11-08T21:03:17.260Z</time>
      </trkpt>
      <trkpt lat="47.506799" lon="8.061960">
        <ele>522.362220</ele>
        <time>2021-11-08T21:03:22.066Z</time>
      </trkpt>
      <trkpt lat="47.506664" lon="8.062340">
        <ele>523.199486</ele>
        <time>2021-11-08T21:03:37.522Z</time>
      </trkpt>
      <trkpt lat="47.506276" lon="8.063954">
        <ele>525.358308</ele>
        <time>2021-11-08T21:04:30.002Z</time>
      </trkpt>
      <trkpt lat="47.506078" lon="8.064758">
        <ele>524.433884</ele>
        <time>2021-11-08T21:04:50.773Z</time>
      </trkpt>
      <trkpt lat="47.506010" lon="8.064980">
        <ele>524.170569</ele>
        <time>2021-11-08T21:04:55.817Z</time>
      </trkpt>
      <trkpt lat="47.505540" lon="8.066896">
        <ele>519.114807</ele>
        <time>2021-11-08T21:05:35.272Z</time>
      </trkpt>
      <trkpt lat="47.505473" lon="8.067198">
        <ele>517.723153</ele>
        <time>2021-11-08T21:05:41.115Z</time>
      </trkpt>
      <trkpt lat="47.505081" lon="8.067225">
        <ele>515.179840</ele>
        <time>2021-11-08T21:05:46.103Z</time>
      </trkpt>
      <trkpt lat="47.504397" lon="8.067358">
        <ele>510.422076</ele>
        <time>2021-11-08T21:05:54.727Z</time>
      </trkpt>
      <trkpt lat="47.504101" lon="8.067367">
        <ele>507.480112</ele>
        <time>2021-11-08T21:05:58.344Z</time>
      </trkpt>
      <trkpt lat="47.504036" lon="8.067372">
        <ele>506.833338</ele>
        <time>2021-11-08T21:05:59.166Z</time>
      </trkpt>
      <trkpt lat="47.503779" lon="8.067381">
        <ele>504.278822</ele>
        <time>2021-11-08T21:06:02.268Z</time>
      </trkpt>
      <trkpt lat="47.503632" lon="8.067340">
        <ele>502.792385</ele>
        <time>2021-11-08T21:06:04.117Z</time>
      </trkpt>
      <trkpt lat="47.503534" lon="8.067213">
        <ele>501.498111</ele>
        <time>2021-11-08T21:06:05.694Z</time>
      </trkpt>
      <trkpt lat="47.503405" lon="8.066731">
        <ele>498.017833</ele>
        <time>2021-11-08T21:06:09.958Z</time>
      </trkpt>
      <trkpt lat="47.503327" lon="8.066232">
        <ele>494.579599</ele>
        <time>2021-11-08T21:06:14.146Z</time>
      </trkpt>
      <trkpt lat="47.503323" lon="8.065713">
        <ele>491.124112</ele>
        <time>2021-11-08T21:06:18.380Z</time>
      </trkpt>
      <trkpt lat="47.503369" lon="8.065330">
        <ele>488.545696</ele>
        <time>2021-11-08T21:06:21.593Z</time>
      </trkpt>
      <trkpt lat="47.504942" lon="8.061411">
        <ele>458.146985</ele>
        <time>2021-11-08T21:06:59.398Z</time>
      </trkpt>
      <trkpt lat="47.505307" lon="8.059618">
        <ele>443.062535</ele>
        <time>2021-11-08T21:07:14.457Z</time>
      </trkpt>
      <trkpt lat="47.505370" lon="8.059258">
        <ele>440.056463</ele>
        <time>2021-11-08T21:07:17.438Z</time>
      </trkpt>
      <trkpt lat="47.505387" lon="8.059133">
        <ele>439.025770</ele>
        <time>2021-11-08T21:07:18.491Z</time>
      </trkpt>
      <trkpt lat="47.505424" lon="8.058918">
        <ele>437.232340</ele>
        <time>2021-11-08T21:07:20.276Z</time>
      </trkpt>
      <trkpt lat="47.505451" lon="8.058764">
        <ele>435.994574</ele>
        <time>2021-11-08T21:07:21.562Z</time>
      </trkpt>
      <trkpt lat="47.505517" lon="8.058346">
        <ele>432.921594</ele>
        <time>2021-11-08T21:07:24.994Z</time>
      </trkpt>
      <trkpt lat="47.505677" lon="8.056765">
        <ele>421.477448</ele>
        <time>2021-11-08T21:07:37.961Z</time>
      </trkpt>
      <trkpt lat="47.505625" lon="8.056515">
        <ele>419.604867</ele>
        <time>2021-11-08T21:07:40.207Z</time>
      </trkpt>
      <trkpt lat="47.505475" lon="8.056464">
        <ele>417.973887</ele>
        <time>2021-11-08T21:07:42.236Z</time>
      </trkpt>
      <trkpt lat="47.505441" lon="8.056483">
        <ele>417.588761</ele>
        <time>2021-11-08T21:07:42.648Z</time>
      </trkpt>
      <trkpt lat="47.505423" lon="8.056514">
        <ele>417.300633</ele>
        <time>2021-11-08T21:07:42.983Z</time>
      </trkpt>
      <trkpt lat="47.505291" lon="8.057302">
        <ele>413.718063</ele>
        <time>2021-11-08T21:07:50.184Z</time>
      </trkpt>
      <trkpt lat="47.504282" lon="8.059500">
        <ele>403.607712</ele>
        <time>2021-11-08T21:08:13.658Z</time>
      </trkpt>
      <trkpt lat="47.504169" lon="8.059693">
        <ele>402.991399</ele>
        <time>2021-11-08T21:08:16.092Z</time>
      </trkpt>
      <trkpt lat="47.504078" lon="8.059826">
        <ele>402.534591</ele>
        <time>2021-11-08T21:08:17.974Z</time>
      </trkpt>
      <trkpt lat="47.503958" lon="8.059935">
        <ele>402.031667</ele>
        <time>2021-11-08T21:08:19.939Z</time>
      </trkpt>
      <trkpt lat="47.503788" lon="8.060053">
        <ele>401.360956</ele>
        <time>2021-11-08T21:08:22.775Z</time>
      </trkpt>
      <trkpt lat="47.503390" lon="8.060324">
        <ele>399.796046</ele>
        <time>2021-11-08T21:08:29.288Z</time>
      </trkpt>
      <trkpt lat="47.503424" lon="8.060388">
        <ele>399.599569</ele>
        <time>2021-11-08T21:08:30.372Z</time>
      </trkpt>
      <trkpt lat="47.503422" lon="8.060609">
        <ele>399.142245</ele>
        <time>2021-11-08T21:08:32.680Z</time>
      </trkpt>
      <trkpt lat="47.502398" lon="8.062849">
        <ele>399.982547</ele>
        <time>2021-11-08T21:09:15.636Z</time>
      </trkpt>
      <trkpt lat="47.502143" lon="8.063616">
        <ele>400.069728</ele>
        <time>2021-11-08T21:09:30.497Z</time>
      </trkpt>
      <trkpt lat="47.502081" lon="8.063899">
        <ele>400.100069</ele>
        <time>2021-11-08T21:09:35.652Z</time>
      </trkpt>
      <trkpt lat="47.501830" lon="8.064383">
        <ele>400.162295</ele>
        <time>2021-11-08T21:09:44.718Z</time>
      </trkpt>
      <trkpt lat="47.501079" lon="8.065561">
        <ele>399.169160</ele>
        <time>2021-11-08T21:10:02.934Z</time>
      </trkpt>
      <trkpt lat="47.500642" lon="8.066114">
        <ele>398.007919</ele>
        <time>2021-11-08T21:10:11.750Z</time>
      </trkpt>
      <trkpt lat="47.500485" lon="8.066332">
        <ele>397.573124</ele>
        <time>2021-11-08T21:10:14.866Z</time>
      </trkpt>
      <trkpt lat="47.500368" lon="8.066586">
        <ele>397.153631</ele>
        <time>2021-11-08T21:10:18.169Z</time>
      </trkpt>
      <trkpt lat="47.499930" lon="8.068012">
        <ele>395.429442</ele>
        <time>2021-11-08T21:10:34.539Z</time>
      </trkpt>
      <trkpt lat="47.499748" lon="8.068841">
        <ele>394.547666</ele>
        <time>2021-11-08T21:10:44.511Z</time>
      </trkpt>
      <trkpt lat="47.499620" lon="8.069496">
        <ele>393.926551</ele>
        <time>2021-11-08T21:10:53.012Z</time>
      </trkpt>
      <trkpt lat="47.499538" lon="8.069838">
        <ele>393.959837</ele>
        <time>2021-11-08T21:10:57.604Z</time>
      </trkpt>
      <trkpt lat="47.499461" lon="8.070758">
        <ele>394.044866</ele>
        <time>2021-11-08T21:11:09.480Z</time>
      </trkpt>
      <trkpt lat="47.499601" lon="8.071817">
        <ele>394.143841</ele>
        <time>2021-11-08T21:11:25.627Z</time>
      </trkpt>
      <trkpt lat="47.499631" lon="8.072434">
        <ele>394.513560</ele>
        <time>2021-11-08T21:11:35.929Z</time>
      </trkpt>
      <trkpt lat="47.499618" lon="8.072678">
        <ele>394.733688</ele>
        <time>2021-11-08T21:11:40.385Z</time>
      </trkpt>
      <trkpt lat="47.499580" lon="8.073053">
        <ele>395.074724</ele>
        <time>2021-11-08T21:11:46.438Z</time>
      </trkpt>
      <trkpt lat="47.499525" lon="8.073287">
        <ele>395.297549</ele>
        <time>2021-11-08T21:11:51.386Z</time>
      </trkpt>
      <trkpt lat="47.499275" lon="8.073955">
        <ele>395.984352</ele>
        <time>2021-11-08T21:12:04.163Z</time>
      </trkpt>
      <trkpt lat="47.499163" lon="8.074206">
        <ele>396.254889</ele>
        <time>2021-11-08T21:12:10.164Z</time>
      </trkpt>
      <trkpt lat="47.498910" lon="8.074849">
        <ele>396.952085</ele>
        <time>2021-11-08T21:12:23.051Z</time>
      </trkpt>
      <trkpt lat="47.498145" lon="8.076850">
        <ele>399.169437</ele>
        <time>2021-11-08T21:13:03.203Z</time>
      </trkpt>
      <trkpt lat="47.498086" lon="8.076965">
        <ele>399.278370</ele>
        <time>2021-11-08T21:13:06.253Z</time>
      </trkpt>
      <trkpt lat="47.497682" lon="8.077743">
        <ele>400.018616</ele>
        <time>2021-11-08T21:13:23.239Z</time>
      </trkpt>
      <trkpt lat="47.497198" lon="8.078441">
        <ele>400.773162</ele>
        <time>2021-11-08T21:13:39.485Z</time>
      </trkpt>
      <trkpt lat="47.497125" lon="8.078508">
        <ele>400.869073</ele>
        <time>2021-11-08T21:13:42.046Z</time>
      </trkpt>
      <trkpt lat="47.497038" lon="8.078610">
        <ele>400.993000</ele>
        <time>2021-11-08T21:13:44.663Z</time>
      </trkpt>
      <trkpt lat="47.496793" lon="8.078891">
        <ele>401.204332</ele>
        <time>2021-11-08T21:13:51.552Z</time>
      </trkpt>
      <trkpt lat="47.496446" lon="8.079280">
        <ele>401.351491</ele>
        <time>2021-11-08T21:14:00.875Z</time>
      </trkpt>
      <trkpt lat="47.496380" lon="8.079285">
        <ele>401.373833</ele>
        <time>2021-11-08T21:14:01.705Z</time>
      </trkpt>
      <trkpt lat="47.496040" lon="8.079701">
        <ele>401.522964</ele>
        <time>2021-11-08T21:14:08.471Z</time>
      </trkpt>
      <trkpt lat="47.495859" lon="8.079943">
        <ele>401.605424</ele>
        <time>2021-11-08T21:14:12.541Z</time>
      </trkpt>
      <trkpt lat="47.495681" lon="8.080229">
        <ele>401.694241</ele>
        <time>2021-11-08T21:14:16.505Z</time>
      </trkpt>
      <trkpt lat="47.495562" lon="8.080466">
        <ele>401.786060</ele>
        <time>2021-11-08T21:14:19.558Z</time>
      </trkpt>
      <trkpt lat="47.495515" lon="8.080558">
        <ele>401.894605</ele>
        <time>2021-11-08T21:14:20.791Z</time>
      </trkpt>
      <trkpt lat="47.495384" lon="8.080873">
        <ele>402.242705</ele>
        <time>2021-11-08T21:14:24.838Z</time>
      </trkpt>
      <trkpt lat="47.495292" lon="8.081144">
        <ele>402.528125</ele>
        <time>2021-11-08T21:14:28.610Z</time>
      </trkpt>
      <trkpt lat="47.495281" lon="8.081177">
        <ele>402.562755</ele>
        <time>2021-11-08T21:14:29.130Z</time>
      </trkpt>
      <trkpt lat="47.495207" lon="8.081445">
        <ele>402.835218</ele>
        <time>2021-11-08T21:14:32.537Z</time>
      </trkpt>
      <trkpt lat="47.495162" lon="8.081632">
        <ele>403.022032</ele>
        <time>2021-11-08T21:14:35.244Z</time>
      </trkpt>
      <trkpt lat="47.495132" lon="8.081754">
        <ele>403.144214</ele>
        <time>2021-11-08T21:14:36.924Z</time>
      </trkpt>
      <trkpt lat="47.495088" lon="8.082021">
        <ele>403.402854</ele>
        <time>2021-11-08T21:14:40.556Z</time>
      </trkpt>
      <trkpt lat="47.495034" lon="8.082354">
        <ele>403.725140</ele>
        <time>2021-11-08T21:14:45.395Z</time>
      </trkpt>
      <trkpt lat="47.495018" lon="8.082502">
        <ele>403.866195</ele>
        <time>2021-11-08T21:14:48.069Z</time>
      </trkpt>
      <trkpt lat="47.494982" lon="8.082826">
        <ele>404.175208</ele>
        <time>2021-11-08T21:14:52.804Z</time>
      </trkpt>
      <trkpt lat="47.494963" lon="8.083009">
        <ele>404.529842</ele>
        <time>2021-11-08T21:14:56.273Z</time>
      </trkpt>
      <trkpt lat="47.494933" lon="8.083243">
        <ele>405.201809</ele>
        <time>2021-11-08T21:15:01.336Z</time>
      </trkpt>
      <trkpt lat="47.494898" lon="8.083514">
        <ele>405.980227</ele>
        <time>2021-11-08T21:15:06.855Z</time>
      </trkpt>
      <trkpt lat="47.494822" lon="8.084015">
        <ele>407.428894</ele>
        <time>2021-11-08T21:15:17.781Z</time>
      </trkpt>
      <trkpt lat="47.494924" lon="8.084065">
        <ele>407.877566</ele>
        <time>2021-11-08T21:15:21.122Z</time>
      </trkpt>
      <trkpt lat="47.495055" lon="8.084135">
        <ele>408.459137</ele>
        <time>2021-11-08T21:15:25.958Z</time>
      </trkpt>
      <trkpt lat="47.495106" lon="8.084168">
        <ele>408.691559</ele>
        <time>2021-11-08T21:15:27.387Z</time>
      </trkpt>
      <trkpt lat="47.495171" lon="8.084232">
        <ele>409.017551</ele>
        <time>2021-11-08T21:15:29.897Z</time>
      </trkpt>
      <trkpt lat="47.495445" lon="8.084551">
        <ele>410.473239</ele>
        <time>2021-11-08T21:15:42.304Z</time>
      </trkpt>
      <trkpt lat="47.495549" lon="8.084639">
        <ele>410.973468</ele>
        <time>2021-11-08T21:15:46.574Z</time>
      </trkpt>
      <trkpt lat="47.495636" lon="8.084745">
        <ele>411.444009</ele>
        <time>2021-11-08T21:15:51.521Z</time>
      </trkpt>
      <trkpt lat="47.496002" lon="8.085400">
        <ele>413.745292</ele>
        <time>2021-11-08T21:16:09.514Z</time>
      </trkpt>
      <trkpt lat="47.496274" lon="8.085642">
        <ele>415.008621</ele>
        <time>2021-11-08T21:16:19.438Z</time>
      </trkpt>
      <trkpt lat="47.496373" lon="8.085787">
        <ele>415.563054</ele>
        <time>2021-11-08T21:16:24.581Z</time>
      </trkpt>
      <trkpt lat="47.496422" lon="8.086009">
        <ele>416.191184</ele>
        <time>2021-11-08T21:16:28.409Z</time>
      </trkpt>
      <trkpt lat="47.496519" lon="8.086234">
        <ele>416.909025</ele>
        <time>2021-11-08T21:16:33.985Z</time>
      </trkpt>
      <trkpt lat="47.496576" lon="8.086291">
        <ele>417.182861</ele>
        <time>2021-11-08T21:16:37.105Z</time>
      </trkpt>
      <trkpt lat="47.496752" lon="8.086468">
        <ele>418.029899</ele>
        <time>2021-11-08T21:16:42.134Z</time>
      </trkpt>
      <trkpt lat="47.496950" lon="8.086653">
        <ele>418.960399</ele>
        <time>2021-11-08T21:16:48.940Z</time>
      </trkpt>
      <trkpt lat="47.497376" lon="8.086991">
        <ele>420.789640</ele>
        <time>2021-11-08T21:17:01.671Z</time>
      </trkpt>
      <trkpt lat="47.497737" lon="8.087270">
        <ele>422.330888</ele>
        <time>2021-11-08T21:17:12.140Z</time>
      </trkpt>
      <trkpt lat="47.497928" lon="8.087452">
        <ele>423.190573</ele>
        <time>2021-11-08T21:17:19.611Z</time>
      </trkpt>
      <trkpt lat="47.498188" lon="8.087851">
        <ele>424.607968</ele>
        <time>2021-11-08T21:17:31.572Z</time>
      </trkpt>
      <trkpt lat="47.498481" lon="8.088558">
        <ele>426.939896</ele>
        <time>2021-11-08T21:17:50.692Z</time>
      </trkpt>
      <trkpt lat="47.498653" lon="8.088863">
        <ele>428.171993</ele>
        <time>2021-11-08T21:17:59.775Z</time>
      </trkpt>
      <trkpt lat="47.498666" lon="8.088885">
        <ele>428.262636</ele>
        <time>2021-11-08T21:18:00.674Z</time>
      </trkpt>
      <trkpt lat="47.498851" lon="8.089152">
        <ele>429.448720</ele>
        <time>2021-11-08T21:18:10.742Z</time>
      </trkpt>
      <trkpt lat="47.498994" lon="8.089359">
        <ele>430.366865</ele>
        <time>2021-11-08T21:18:17.840Z</time>
      </trkpt>
      <trkpt lat="47.500332" lon="8.091539">
        <ele>437.829595</ele>
        <time>2021-11-08T21:19:18.681Z</time>
      </trkpt>
      <trkpt lat="47.500507" lon="8.091877">
        <ele>438.749503</ele>
        <time>2021-11-08T21:19:25.691Z</time>
      </trkpt>
      <trkpt lat="47.500685" lon="8.092227">
        <ele>439.695855</ele>
        <time>2021-11-08T21:19:32.562Z</time>
      </trkpt>
      <trkpt lat="47.501149" lon="8.093186">
        <ele>440.230603</ele>
        <time>2021-11-08T21:19:47.229Z</time>
      </trkpt>
      <trkpt lat="47.501513" lon="8.093894">
        <ele>440.604572</ele>
        <time>2021-11-08T21:19:57.158Z</time>
      </trkpt>
      <trkpt lat="47.501590" lon="8.094043">
        <ele>440.683424</ele>
        <time>2021-11-08T21:19:58.530Z</time>
      </trkpt>
      <trkpt lat="47.502026" lon="8.094768">
        <ele>441.185188</ele>
        <time>2021-11-08T21:20:08.924Z</time>
      </trkpt>
      <trkpt lat="47.502110" lon="8.094873">
        <ele>441.281713</ele>
        <time>2021-11-08T21:20:10.116Z</time>
      </trkpt>
      <trkpt lat="47.502022" lon="8.095123">
        <ele>441.448910</ele>
        <time>2021-11-08T21:20:15.516Z</time>
      </trkpt>
      <trkpt lat="47.502110" lon="8.094873">
        <ele>441.616108</ele>
        <time>2021-11-08T21:20:18.684Z</time>
      </trkpt>
      <trkpt lat="47.502217" lon="8.094977">
        <ele>441.728489</ele>
        <time>2021-11-08T21:20:21.841Z</time>
      </trkpt>
      <trkpt lat="47.502282" lon="8.095019">
        <ele>441.790755</ele>
        <time>2021-11-08T21:20:23.272Z</time>
      </trkpt>
      <trkpt lat="47.502574" lon="8.095231">
        <ele>442.076290</ele>
        <time>2021-11-08T21:20:29.262Z</time>
      </trkpt>
      <trkpt lat="47.502910" lon="8.095439">
        <ele>442.396036</ele>
        <time>2021-11-08T21:20:36.982Z</time>
      </trkpt>
      <trkpt lat="47.503482" lon="8.095792">
        <ele>444.536789</ele>
        <time>2021-11-08T21:20:52.002Z</time>
      </trkpt>
      <trkpt lat="47.503767" lon="8.095971">
        <ele>445.680522</ele>
        <time>2021-11-08T21:21:01.526Z</time>
      </trkpt>
      <trkpt lat="47.504630" lon="8.096527">
        <ele>449.151265</ele>
        <time>2021-11-08T21:21:33.165Z</time>
      </trkpt>
      <trkpt lat="47.504815" lon="8.096672">
        <ele>449.855142</ele>
        <time>2021-11-08T21:21:40.195Z</time>
      </trkpt>
      <trkpt lat="47.504977" lon="8.096829">
        <ele>450.506221</ele>
        <time>2021-11-08T21:21:47.093Z</time>
      </trkpt>
      <trkpt lat="47.505090" lon="8.096968">
        <ele>451.000245</ele>
        <time>2021-11-08T21:21:51.507Z</time>
      </trkpt>
      <trkpt lat="47.505224" lon="8.097111">
        <ele>451.555695</ele>
        <time>2021-11-08T21:21:56.753Z</time>
      </trkpt>
      <trkpt lat="47.505520" lon="8.097456">
        <ele>452.822474</ele>
        <time>2021-11-08T21:22:07.098Z</time>
      </trkpt>
      <trkpt lat="47.505811" lon="8.097796">
        <ele>454.069015</ele>
        <time>2021-11-08T21:22:15.974Z</time>
      </trkpt>
      <trkpt lat="47.505855" lon="8.097849">
        <ele>454.259756</ele>
        <time>2021-11-08T21:22:17.256Z</time>
      </trkpt>
      <trkpt lat="47.506023" lon="8.098051">
        <ele>454.987516</ele>
        <time>2021-11-08T21:22:22.791Z</time>
      </trkpt>
      <trkpt lat="47.506383" lon="8.098483">
        <ele>455.780468</ele>
        <time>2021-11-08T21:22:33.713Z</time>
      </trkpt>
      <trkpt lat="47.506485" lon="8.098597">
        <ele>455.977072</ele>
        <time>2021-11-08T21:22:35.754Z</time>
      </trkpt>
      <trkpt lat="47.506767" lon="8.098876">
        <ele>456.498835</ele>
        <time>2021-11-08T21:22:43.191Z</time>
      </trkpt>
      <trkpt lat="47.506874" lon="8.098948">
        <ele>456.679640</ele>
        <time>2021-11-08T21:22:46.094Z</time>
      </trkpt>
      <trkpt lat="47.506976" lon="8.099024">
        <ele>456.855300</ele>
        <time>2021-11-08T21:22:48.251Z</time>
      </trkpt>
      <trkpt lat="47.507131" lon="8.099082">
        <ele>457.101237</ele>
        <time>2021-11-08T21:22:50.409Z</time>
      </trkpt>
      <trkpt lat="47.507198" lon="8.099101">
        <ele>457.206177</ele>
        <time>2021-11-08T21:22:52.203Z</time>
      </trkpt>
      <trkpt lat="47.507495" lon="8.099134">
        <ele>457.664339</ele>
        <time>2021-11-08T21:22:57.078Z</time>
      </trkpt>
      <trkpt lat="47.507666" lon="8.099135">
        <ele>457.948163</ele>
        <time>2021-11-08T21:23:01.012Z</time>
      </trkpt>
      <trkpt lat="47.507728" lon="8.099150">
        <ele>458.123758</ele>
        <time>2021-11-08T21:23:02.336Z</time>
      </trkpt>
      <trkpt lat="47.508035" lon="8.099268">
        <ele>459.010301</ele>
        <time>2021-11-08T21:23:08.510Z</time>
      </trkpt>
      <trkpt lat="47.508341" lon="8.099423">
        <ele>459.914280</ele>
        <time>2021-11-08T21:23:16.257Z</time>
      </trkpt>
      <trkpt lat="47.508401" lon="8.099452">
        <ele>460.090697</ele>
        <time>2021-11-08T21:23:17.915Z</time>
      </trkpt>
      <trkpt lat="47.508511" lon="8.099532">
        <ele>460.433254</ele>
        <time>2021-11-08T21:23:20.886Z</time>
      </trkpt>
      <trkpt lat="47.508596" lon="8.099602">
        <ele>460.705123</ele>
        <time>2021-11-08T21:23:24.317Z</time>
      </trkpt>
      <trkpt lat="47.508688" lon="8.099702">
        <ele>461.024139</ele>
        <time>2021-11-08T21:23:28.297Z</time>
      </trkpt>
      <trkpt lat="47.509176" lon="8.100345">
        <ele>462.850143</ele>
        <time>2021-11-08T21:23:47.511Z</time>
      </trkpt>
      <trkpt lat="47.509343" lon="8.100494">
        <ele>463.527809</ele>
        <time>2021-11-08T21:23:53.014Z</time>
      </trkpt>
      <trkpt lat="47.509412" lon="8.100549">
        <ele>463.809236</ele>
        <time>2021-11-08T21:23:55.139Z</time>
      </trkpt>
      <trkpt lat="47.509622" lon="8.100692">
        <ele>464.639339</ele>
        <time>2021-11-08T21:24:01.719Z</time>
      </trkpt>
      <trkpt lat="47.509638" lon="8.100703">
        <ele>464.702691</ele>
        <time>2021-11-08T21:24:02.202Z</time>
      </trkpt>
      <trkpt lat="47.509944" lon="8.100887">
        <ele>465.888781</ele>
        <time>2021-11-08T21:24:11.715Z</time>
      </trkpt>
      <trkpt lat="47.510731" lon="8.101349">
        <ele>468.929129</ele>
        <time>2021-11-08T21:24:36.673Z</time>
      </trkpt>
      <trkpt lat="47.511350" lon="8.101444">
        <ele>472.517485</ele>
        <time>2021-11-08T21:24:55.175Z</time>
      </trkpt>
      <trkpt lat="47.511784" lon="8.101451">
        <ele>475.264445</ele>
        <time>2021-11-08T21:25:08.434Z</time>
      </trkpt>
      <trkpt lat="47.512294" lon="8.101446">
        <ele>478.492318</ele>
        <time>2021-11-08T21:25:32.984Z</time>
      </trkpt>
      <trkpt lat="47.513097" lon="8.101440">
        <ele>486.212099</ele>
        <time>2021-11-08T21:26:14.731Z</time>
      </trkpt>
      <trkpt lat="47.513213" lon="8.101454">
        <ele>487.641984</ele>
        <time>2021-11-08T21:26:21.058Z</time>
      </trkpt>
      <trkpt lat="47.513274" lon="8.101477">
        <ele>488.415341</ele>
        <time>2021-11-08T21:26:27.802Z</time>
      </trkpt>
      <trkpt lat="47.513402" lon="8.101592">
        <ele>490.254821</ele>
        <time>2021-11-08T21:26:34.910Z</time>
      </trkpt>
      <trkpt lat="47.514173" lon="8.102716">
        <ele>503.558939</ele>
        <time>2021-11-08T21:27:52.135Z</time>
      </trkpt>
      <trkpt lat="47.514667" lon="8.103702">
        <ele>513.904681</ele>
        <time>2021-11-08T21:28:49.048Z</time>
      </trkpt>
      <trkpt lat="47.514756" lon="8.103964">
        <ele>516.376118</ele>
        <time>2021-11-08T21:29:01.996Z</time>
      </trkpt>
      <trkpt lat="47.514931" lon="8.104527">
        <ele>521.598916</ele>
        <time>2021-11-08T21:29:28.043Z</time>
      </trkpt>
      <trkpt lat="47.515233" lon="8.105459">
        <ele>528.807587</ele>
        <time>2021-11-08T21:30:08.492Z</time>
      </trkpt>
      <trkpt lat="47.515271" lon="8.105582">
        <ele>529.604746</ele>
        <time>2021-11-08T21:30:13.779Z</time>
      </trkpt>
      <trkpt lat="47.515524" lon="8.106413">
        <ele>534.976959</ele>
        <time>2021-11-08T21:30:43.496Z</time>
      </trkpt>
      <trkpt lat="47.516180" lon="8.108478">
        <ele>546.957517</ele>
        <time>2021-11-08T21:31:51.343Z</time>
      </trkpt>
      <trkpt lat="47.516517" lon="8.109548">
        <ele>552.538019</ele>
        <time>2021-11-08T21:32:25.034Z</time>
      </trkpt>
      <trkpt lat="47.516730" lon="8.110266">
        <ele>555.327622</ele>
        <time>2021-11-08T21:32:47.264Z</time>
      </trkpt>
      <trkpt lat="47.516960" lon="8.110849">
        <ele>557.414126</ele>
        <time>2021-11-08T21:33:03.916Z</time>
      </trkpt>
      <trkpt lat="47.517126" lon="8.111099">
        <ele>558.497550</ele>
        <time>2021-11-08T21:33:12.065Z</time>
      </trkpt>
      <trkpt lat="47.517402" lon="8.111532">
        <ele>560.337491</ele>
        <time>2021-11-08T21:33:24.985Z</time>
      </trkpt>
      <trkpt lat="47.517585" lon="8.111839">
        <ele>561.602881</ele>
        <time>2021-11-08T21:33:31.877Z</time>
      </trkpt>
      <trkpt lat="47.517983" lon="8.112466">
        <ele>561.616480</ele>
        <time>2021-11-08T21:33:42.683Z</time>
      </trkpt>
      <trkpt lat="47.518295" lon="8.113056">
        <ele>561.417663</ele>
        <time>2021-11-08T21:33:49.381Z</time>
      </trkpt>
      <trkpt lat="47.518474" lon="8.113619">
        <ele>561.252563</ele>
        <time>2021-11-08T21:33:53.992Z</time>
      </trkpt>
      <trkpt lat="47.518892" lon="8.116720">
        <ele>557.761763</ele>
        <time>2021-11-08T21:34:17.542Z</time>
      </trkpt>
      <trkpt lat="47.518885" lon="8.117042">
        <ele>557.236560</ele>
        <time>2021-11-08T21:34:20.239Z</time>
      </trkpt>
      <trkpt lat="47.518740" lon="8.117714">
        <ele>556.082935</ele>
        <time>2021-11-08T21:34:25.702Z</time>
      </trkpt>
      <trkpt lat="47.518622" lon="8.118005">
        <ele>555.527883</ele>
        <time>2021-11-08T21:34:28.259Z</time>
      </trkpt>
      <trkpt lat="47.518325" lon="8.118433">
        <ele>554.524374</ele>
        <time>2021-11-08T21:34:32.671Z</time>
      </trkpt>
      <trkpt lat="47.518234" lon="8.118678">
        <ele>554.067135</ele>
        <time>2021-11-08T21:34:34.591Z</time>
      </trkpt>
      <trkpt lat="47.518226" lon="8.118790">
        <ele>553.882961</ele>
        <time>2021-11-08T21:34:35.450Z</time>
      </trkpt>
      <trkpt lat="47.518291" lon="8.118990">
        <ele>553.520005</ele>
        <time>2021-11-08T21:34:36.859Z</time>
      </trkpt>
      <trkpt lat="47.518372" lon="8.119045">
        <ele>553.130889</ele>
        <time>2021-11-08T21:34:37.739Z</time>
      </trkpt>
      <trkpt lat="47.518662" lon="8.118990">
        <ele>551.155816</ele>
        <time>2021-11-08T21:34:40.588Z</time>
      </trkpt>
      <trkpt lat="47.518865" lon="8.118958">
        <ele>549.776720</ele>
        <time>2021-11-08T21:34:42.626Z</time>
      </trkpt>
      <trkpt lat="47.519020" lon="8.118892">
        <ele>548.687197</ele>
        <time>2021-11-08T21:34:44.059Z</time>
      </trkpt>
      <trkpt lat="47.519187" lon="8.118830">
        <ele>547.524124</ele>
        <time>2021-11-08T21:34:45.608Z</time>
      </trkpt>
      <trkpt lat="47.519221" lon="8.118862">
        <ele>547.251970</ele>
        <time>2021-11-08T21:34:45.956Z</time>
      </trkpt>
      <trkpt lat="47.519597" lon="8.118303">
        <ele>543.652575</ele>
        <time>2021-11-08T21:34:50.630Z</time>
      </trkpt>
      <trkpt lat="47.520037" lon="8.117760">
        <ele>539.808362</ele>
        <time>2021-11-08T21:34:55.646Z</time>
      </trkpt>
      <trkpt lat="47.520145" lon="8.117619">
        <ele>538.852357</ele>
        <time>2021-11-08T21:34:56.906Z</time>
      </trkpt>
      <trkpt lat="47.520249" lon="8.117369">
        <ele>537.535746</ele>
        <time>2021-11-08T21:34:58.663Z</time>
      </trkpt>
      <trkpt lat="47.520431" lon="8.116272">
        <ele>532.470561</ele>
        <time>2021-11-08T21:35:05.524Z</time>
      </trkpt>
      <trkpt lat="47.520323" lon="8.115296">
        <ele>528.783451</ele>
        <time>2021-11-08T21:35:11.778Z</time>
      </trkpt>
      <trkpt lat="47.520274" lon="8.113829">
        <ele>526.067627</ele>
        <time>2021-11-08T21:35:23.093Z</time>
      </trkpt>
      <trkpt lat="47.520208" lon="8.113267">
        <ele>525.012884</ele>
        <time>2021-11-08T21:35:27.414Z</time>
      </trkpt>
      <trkpt lat="47.520107" lon="8.112529">
        <ele>522.858372</ele>
        <time>2021-11-08T21:35:32.482Z</time>
      </trkpt>
      <trkpt lat="47.519978" lon="8.111654">
        <ele>519.547903</ele>
        <time>2021-11-08T21:35:38.335Z</time>
      </trkpt>
      <trkpt lat="47.519903" lon="8.111141">
        <ele>517.607752</ele>
        <time>2021-11-08T21:35:41.611Z</time>
      </trkpt>
      <trkpt lat="47.519889" lon="8.110997">
        <ele>517.069991</ele>
        <time>2021-11-08T21:35:42.477Z</time>
      </trkpt>
      <trkpt lat="47.519853" lon="8.110730">
        <ele>516.063587</ele>
        <time>2021-11-08T21:35:44.148Z</time>
      </trkpt>
      <trkpt lat="47.519817" lon="8.110530">
        <ele>515.298508</ele>
        <time>2021-11-08T21:35:45.371Z</time>
      </trkpt>
      <trkpt lat="47.519621" lon="8.109743">
        <ele>510.628744</ele>
        <time>2021-11-08T21:35:50.368Z</time>
      </trkpt>
      <trkpt lat="47.519607" lon="8.109477">
        <ele>508.981411</ele>
        <time>2021-11-08T21:35:51.914Z</time>
      </trkpt>
      <trkpt lat="47.519653" lon="8.109157">
        <ele>506.961385</ele>
        <time>2021-11-08T21:35:53.836Z</time>
      </trkpt>
      <trkpt lat="47.520512" lon="8.107089">
        <ele>491.694758</ele>
        <time>2021-11-08T21:36:08.001Z</time>
      </trkpt>
      <trkpt lat="47.520667" lon="8.106525">
        <ele>487.765488</ele>
        <time>2021-11-08T21:36:11.550Z</time>
      </trkpt>
      <trkpt lat="47.520791" lon="8.105593">
        <ele>481.635772</ele>
        <time>2021-11-08T21:36:17.111Z</time>
      </trkpt>
      <trkpt lat="47.520926" lon="8.105058">
        <ele>478.319729</ele>
        <time>2021-11-08T21:36:20.452Z</time>
      </trkpt>
      <trkpt lat="47.521652" lon="8.103791">
        <ele>468.936474</ele>
        <time>2021-11-08T21:36:30.294Z</time>
      </trkpt>
      <trkpt lat="47.522068" lon="8.102727">
        <ele>462.187255</ele>
        <time>2021-11-08T21:36:37.751Z</time>
      </trkpt>
      <trkpt lat="47.522278" lon="8.102263">
        <ele>459.190583</ele>
        <time>2021-11-08T21:36:41.102Z</time>
      </trkpt>
      <trkpt lat="47.522538" lon="8.101680">
        <ele>455.442355</ele>
        <time>2021-11-08T21:36:45.242Z</time>
      </trkpt>
      <trkpt lat="47.522685" lon="8.101391">
        <ele>453.501294</ele>
        <time>2021-11-08T21:36:47.425Z</time>
      </trkpt>
      <trkpt lat="47.522770" lon="8.101280">
        <ele>452.600951</ele>
        <time>2021-11-08T21:36:48.400Z</time>
      </trkpt>
      <trkpt lat="47.522951" lon="8.101080">
        <ele>450.651407</ele>
        <time>2021-11-08T21:36:50.439Z</time>
      </trkpt>
      <trkpt lat="47.523070" lon="8.100979">
        <ele>449.342383</ele>
        <time>2021-11-08T21:36:51.627Z</time>
      </trkpt>
      <trkpt lat="47.524879" lon="8.099449">
        <ele>429.865656</ele>
        <time>2021-11-08T21:37:09.579Z</time>
      </trkpt>
      <trkpt lat="47.525008" lon="8.099322">
        <ele>428.508278</ele>
        <time>2021-11-08T21:37:10.933Z</time>
      </trkpt>
      <trkpt lat="47.525047" lon="8.099283">
        <ele>428.095917</ele>
        <time>2021-11-08T21:37:11.341Z</time>
      </trkpt>
      <trkpt lat="47.525240" lon="8.099058">
        <ele>425.943567</ele>
        <time>2021-11-08T21:37:13.487Z</time>
      </trkpt>
      <trkpt lat="47.525342" lon="8.098906">
        <ele>424.675586</ele>
        <time>2021-11-08T21:37:14.768Z</time>
      </trkpt>
      <trkpt lat="47.526026" lon="8.097956">
        <ele>417.128653</ele>
        <time>2021-11-08T21:37:23.008Z</time>
      </trkpt>
      <trkpt lat="47.526470" lon="8.097487">
        <ele>413.809854</ele>
        <time>2021-11-08T21:37:27.989Z</time>
      </trkpt>
      <trkpt lat="47.526492" lon="8.097460">
        <ele>413.635978</ele>
        <time>2021-11-08T21:37:28.236Z</time>
      </trkpt>
      <trkpt lat="47.526839" lon="8.097051">
        <ele>410.937178</ele>
        <time>2021-11-08T21:37:32.359Z</time>
      </trkpt>
      <trkpt lat="47.527057" lon="8.096846">
        <ele>409.365717</ele>
        <time>2021-11-08T21:37:34.937Z</time>
      </trkpt>
      <trkpt lat="47.527143" lon="8.096799">
        <ele>408.807876</ele>
        <time>2021-11-08T21:37:35.743Z</time>
      </trkpt>
      <trkpt lat="47.527275" lon="8.096747">
        <ele>407.976671</ele>
        <time>2021-11-08T21:37:37.132Z</time>
      </trkpt>
      <trkpt lat="47.527399" lon="8.096712">
        <ele>407.320238</ele>
        <time>2021-11-08T21:37:38.394Z</time>
      </trkpt>
      <trkpt lat="47.527504" lon="8.096695">
        <ele>406.821650</ele>
        <time>2021-11-08T21:37:39.336Z</time>
      </trkpt>
      <trkpt lat="47.527851" lon="8.096625">
        <ele>405.168570</ele>
        <time>2021-11-08T21:37:42.540Z</time>
      </trkpt>
      <trkpt lat="47.527979" lon="8.096600">
        <ele>404.559136</ele>
        <time>2021-11-08T21:37:43.858Z</time>
      </trkpt>
      <trkpt lat="47.528218" lon="8.096523">
        <ele>403.404591</ele>
        <time>2021-11-08T21:37:46.082Z</time>
      </trkpt>
      <trkpt lat="47.528380" lon="8.096461">
        <ele>402.614777</ele>
        <time>2021-11-08T21:37:47.797Z</time>
      </trkpt>
      <trkpt lat="47.529047" lon="8.096183">
        <ele>399.344012</ele>
        <time>2021-11-08T21:37:54.503Z</time>
      </trkpt>
      <trkpt lat="47.529168" lon="8.096131">
        <ele>398.848436</ele>
        <time>2021-11-08T21:37:55.644Z</time>
      </trkpt>
      <trkpt lat="47.531490" lon="8.095138">
        <ele>390.176950</ele>
        <time>2021-11-08T21:38:19.715Z</time>
      </trkpt>
      <trkpt lat="47.531870" lon="8.095086">
        <ele>388.925853</ele>
        <time>2021-11-08T21:38:23.708Z</time>
      </trkpt>
      <trkpt lat="47.532250" lon="8.095186">
        <ele>387.660551</ele>
        <time>2021-11-08T21:38:27.679Z</time>
      </trkpt>
      <trkpt lat="47.532487" lon="8.095310">
        <ele>386.836516</ele>
        <time>2021-11-08T21:38:30.230Z</time>
      </trkpt>
      <trkpt lat="47.532716" lon="8.095430">
        <ele>385.957357</ele>
        <time>2021-11-08T21:38:32.681Z</time>
      </trkpt>
      <trkpt lat="47.532730" lon="8.095437">
        <ele>385.902131</ele>
        <time>2021-11-08T21:38:32.833Z</time>
      </trkpt>
      <trkpt lat="47.532829" lon="8.095485">
        <ele>385.512801</ele>
        <time>2021-11-08T21:38:33.849Z</time>
      </trkpt>
      <trkpt lat="47.532951" lon="8.095543">
        <ele>385.033916</ele>
        <time>2021-11-08T21:38:35.121Z</time>
      </trkpt>
      <trkpt lat="47.533176" lon="8.095643">
        <ele>384.155942</ele>
        <time>2021-11-08T21:38:37.379Z</time>
      </trkpt>
      <trkpt lat="47.533524" lon="8.095757">
        <ele>382.823871</ele>
        <time>2021-11-08T21:38:40.830Z</time>
      </trkpt>
      <trkpt lat="47.533963" lon="8.095823">
        <ele>381.174691</ele>
        <time>2021-11-08T21:38:45.198Z</time>
      </trkpt>
      <trkpt lat="47.534255" lon="8.095777">
        <ele>380.077195</ele>
        <time>2021-11-08T21:38:48.110Z</time>
      </trkpt>
      <trkpt lat="47.534348" lon="8.095763">
        <ele>379.759691</ele>
        <time>2021-11-08T21:38:49.057Z</time>
      </trkpt>
      <trkpt lat="47.534413" lon="8.095755">
        <ele>379.558771</ele>
        <time>2021-11-08T21:38:49.670Z</time>
      </trkpt>
      <trkpt lat="47.534678" lon="8.095765">
        <ele>378.742183</ele>
        <time>2021-11-08T21:38:52.411Z</time>
      </trkpt>
      <trkpt lat="47.534747" lon="8.095771">
        <ele>378.529265</ele>
        <time>2021-11-08T21:38:53.057Z</time>
      </trkpt>
      <trkpt lat="47.535050" lon="8.095829">
        <ele>377.588123</ele>
        <time>2021-11-08T21:38:56.183Z</time>
      </trkpt>
      <trkpt lat="47.535376" lon="8.096094">
        <ele>376.442600</ele>
        <time>2021-11-08T21:38:59.949Z</time>
      </trkpt>
      <trkpt lat="47.535460" lon="8.096205">
        <ele>376.095833</ele>
        <time>2021-11-08T21:39:01.025Z</time>
      </trkpt>
      <trkpt lat="47.535585" lon="8.096371">
        <ele>375.578671</ele>
        <time>2021-11-08T21:39:02.801Z</time>
      </trkpt>
      <trkpt lat="47.535931" lon="8.096828">
        <ele>374.184071</ele>
        <time>2021-11-08T21:39:07.692Z</time>
      </trkpt>
      <trkpt lat="47.536133" lon="8.097123">
        <ele>373.444411</ele>
        <time>2021-11-08T21:39:10.915Z</time>
      </trkpt>
      <trkpt lat="47.536630" lon="8.097846">
        <ele>371.628037</ele>
        <time>2021-11-08T21:39:18.390Z</time>
      </trkpt>
      <trkpt lat="47.537252" lon="8.098601">
        <ele>369.474778</ele>
        <time>2021-11-08T21:39:26.706Z</time>
      </trkpt>
      <trkpt lat="47.537638" lon="8.098927">
        <ele>367.872676</ele>
        <time>2021-11-08T21:39:31.094Z</time>
      </trkpt>
      <trkpt lat="47.537844" lon="8.099067">
        <ele>367.055472</ele>
        <time>2021-11-08T21:39:33.318Z</time>
      </trkpt>
      <trkpt lat="47.538419" lon="8.099234">
        <ele>364.942765</ele>
        <time>2021-11-08T21:39:39.136Z</time>
      </trkpt>
      <trkpt lat="47.538521" lon="8.099232">
        <ele>364.574959</ele>
        <time>2021-11-08T21:39:40.108Z</time>
      </trkpt>
      <trkpt lat="47.538655" lon="8.099217">
        <ele>364.090429</ele>
        <time>2021-11-08T21:39:41.407Z</time>
      </trkpt>
      <trkpt lat="47.538959" lon="8.099139">
        <ele>363.033928</ele>
        <time>2021-11-08T21:39:44.446Z</time>
      </trkpt>
      <trkpt lat="47.539852" lon="8.098671">
        <ele>360.505488</ele>
        <time>2021-11-08T21:39:54.036Z</time>
      </trkpt>
      <trkpt lat="47.540568" lon="8.098437">
        <ele>358.548331</ele>
        <time>2021-11-08T21:40:02.027Z</time>
      </trkpt>
      <trkpt lat="47.540794" lon="8.098369">
        <ele>358.265927</ele>
        <time>2021-11-08T21:40:04.775Z</time>
      </trkpt>
      <trkpt lat="47.541022" lon="8.098264">
        <ele>358.090655</ele>
        <time>2021-11-08T21:40:07.678Z</time>
      </trkpt>
      <trkpt lat="47.541294" lon="8.098103">
        <ele>357.875636</ele>
        <time>2021-11-08T21:40:11.334Z</time>
      </trkpt>
      <trkpt lat="47.541736" lon="8.097846">
        <ele>357.527074</ele>
        <time>2021-11-08T21:40:17.505Z</time>
      </trkpt>
      <trkpt lat="47.541891" lon="8.097778">
        <ele>357.408407</ele>
        <time>2021-11-08T21:40:19.688Z</time>
      </trkpt>
      <trkpt lat="47.541972" lon="8.097739">
        <ele>357.345885</ele>
        <time>2021-11-08T21:40:20.860Z</time>
      </trkpt>
      <trkpt lat="47.542782" lon="8.097415">
        <ele>356.812956</ele>
        <time>2021-11-08T21:40:32.986Z</time>
      </trkpt>
      <trkpt lat="47.543428" lon="8.096918">
        <ele>356.408247</ele>
        <time>2021-11-08T21:40:43.008Z</time>
      </trkpt>
      <trkpt lat="47.543978" lon="8.096443">
        <ele>356.017955</ele>
        <time>2021-11-08T21:40:50.730Z</time>
      </trkpt>
      <trkpt lat="47.544419" lon="8.096063">
        <ele>355.150937</ele>
        <time>2021-11-08T21:40:56.771Z</time>
      </trkpt>
      <trkpt lat="47.544594" lon="8.095912">
        <ele>354.806764</ele>
        <time>2021-11-08T21:40:59.055Z</time>
      </trkpt>
      <trkpt lat="47.545126" lon="8.095450">
        <ele>353.758766</ele>
        <time>2021-11-08T21:41:05.982Z</time>
      </trkpt>
      <trkpt lat="47.545895" lon="8.094509">
        <ele>351.143216</ele>
        <time>2021-11-08T21:41:16.825Z</time>
      </trkpt>
      <trkpt lat="47.546338" lon="8.093908">
        <ele>349.134820</ele>
        <time>2021-11-08T21:41:22.797Z</time>
      </trkpt>
      <trkpt lat="47.546508" lon="8.093680">
        <ele>348.368105</ele>
        <time>2021-11-08T21:41:25.045Z</time>
      </trkpt>
      <trkpt lat="47.546922" lon="8.093131">
        <ele>346.365296</ele>
        <time>2021-11-08T21:41:30.425Z</time>
      </trkpt>
      <trkpt lat="47.547048" lon="8.092964">
        <ele>345.633040</ele>
        <time>2021-11-08T21:41:32.005Z</time>
      </trkpt>
      <trkpt lat="47.547127" lon="8.092859">
        <ele>345.173355</ele>
        <time>2021-11-08T21:41:33.019Z</time>
      </trkpt>
      <trkpt lat="47.547403" lon="8.092513">
        <ele>343.607390</ele>
        <time>2021-11-08T21:41:36.486Z</time>
      </trkpt>
      <trkpt lat="47.547479" lon="8.092413">
        <ele>343.167134</ele>
        <time>2021-11-08T21:41:37.520Z</time>
      </trkpt>
      <trkpt lat="47.547688" lon="8.092136">
        <ele>341.952542</ele>
        <time>2021-11-08T21:41:40.168Z</time>
      </trkpt>
      <trkpt lat="47.548109" lon="8.091607">
        <ele>339.561575</ele>
        <time>2021-11-08T21:41:45.401Z</time>
      </trkpt>
      <trkpt lat="47.548580" lon="8.090994">
        <ele>338.333035</ele>
        <time>2021-11-08T21:41:51.743Z</time>
      </trkpt>
      <trkpt lat="47.548932" lon="8.090552">
        <ele>337.591022</ele>
        <time>2021-11-08T21:41:56.899Z</time>
      </trkpt>
      <trkpt lat="47.549330" lon="8.090206">
        <ele>336.848946</ele>
        <time>2021-11-08T21:42:02.979Z</time>
      </trkpt>
      <trkpt lat="47.549689" lon="8.090023">
        <ele>336.394919</ele>
        <time>2021-11-08T21:42:08.944Z</time>
      </trkpt>
      <trkpt lat="47.549751" lon="8.090009">
        <ele>336.490819</ele>
        <time>2021-11-08T21:42:09.736Z</time>
      </trkpt>
      <trkpt lat="47.550176" lon="8.089890">
        <ele>337.152200</ele>
        <time>2021-11-08T21:42:17.884Z</time>
      </trkpt>
      <trkpt lat="47.550657" lon="8.089793">
        <ele>337.894490</ele>
        <time>2021-11-08T21:42:29.190Z</time>
      </trkpt>
      <trkpt lat="47.551496" lon="8.089843">
        <ele>339.012975</ele>
        <time>2021-11-08T21:42:49.004Z</time>
      </trkpt>
      <trkpt lat="47.552086" lon="8.089915">
        <ele>338.549829</ele>
        <time>2021-11-08T21:43:01.749Z</time>
      </trkpt>
      <trkpt lat="47.553684" lon="8.090132">
        <ele>334.521490</ele>
        <time>2021-11-08T21:43:19.112Z</time>
      </trkpt>
      <trkpt lat="47.554025" lon="8.090156">
        <ele>332.238784</ele>
        <time>2021-11-08T21:43:22.238Z</time>
      </trkpt>
      <trkpt lat="47.554276" lon="8.090130">
        <ele>330.556347</ele>
        <time>2021-11-08T21:43:24.438Z</time>
      </trkpt>
      <trkpt lat="47.554475" lon="8.090073">
        <ele>329.201077</ele>
        <time>2021-11-08T21:43:26.245Z</time>
      </trkpt>
      <trkpt lat="47.554514" lon="8.090062">
        <ele>328.935616</ele>
        <time>2021-11-08T21:43:26.574Z</time>
      </trkpt>
      <trkpt lat="47.554750" lon="8.089964">
        <ele>327.296777</ele>
        <time>2021-11-08T21:43:28.728Z</time>
      </trkpt>
      <trkpt lat="47.554777" lon="8.090048">
        <ele>326.876913</ele>
        <time>2021-11-08T21:43:29.491Z</time>
      </trkpt>
      <trkpt lat="47.554799" lon="8.090151">
        <ele>326.389383</ele>
        <time>2021-11-08T21:43:30.343Z</time>
      </trkpt>
      <trkpt lat="47.554832" lon="8.090226">
        <ele>325.985353</ele>
        <time>2021-11-08T21:43:31.074Z</time>
      </trkpt>
      <trkpt lat="47.554885" lon="8.090276">
        <ele>325.555027</ele>
        <time>2021-11-08T21:43:31.828Z</time>
      </trkpt>
      <trkpt lat="47.555031" lon="8.090308">
        <ele>324.423830</ele>
        <time>2021-11-08T21:43:33.736Z</time>
      </trkpt>
      <trkpt lat="47.555112" lon="8.090313">
        <ele>323.802465</ele>
        <time>2021-11-08T21:43:34.675Z</time>
      </trkpt>
      <trkpt lat="47.555198" lon="8.090321">
        <ele>323.142018</ele>
        <time>2021-11-08T21:43:35.702Z</time>
      </trkpt>
      <trkpt lat="47.555337" lon="8.090325">
        <ele>322.076448</ele>
        <time>2021-11-08T21:43:37.473Z</time>
      </trkpt>
      <trkpt lat="47.555380" lon="8.090319">
        <ele>321.745415</ele>
        <time>2021-11-08T21:43:38.015Z</time>
      </trkpt>
      <trkpt lat="47.555442" lon="8.090309">
        <ele>321.267408</ele>
        <time>2021-11-08T21:43:38.740Z</time>
      </trkpt>
      <trkpt lat="47.555488" lon="8.090287">
        <ele>320.896929</ele>
        <time>2021-11-08T21:43:39.315Z</time>
      </trkpt>
      <trkpt lat="47.555709" lon="8.090186">
        <ele>319.124333</ele>
        <time>2021-11-08T21:43:42.261Z</time>
      </trkpt>
      <trkpt lat="47.555814" lon="8.090101">
        <ele>318.207288</ele>
        <time>2021-11-08T21:43:43.708Z</time>
      </trkpt>
      <trkpt lat="47.555958" lon="8.089981">
        <ele>316.941028</ele>
        <time>2021-11-08T21:43:45.190Z</time>
      </trkpt>
      <trkpt lat="47.556049" lon="8.089894">
        <ele>316.110981</ele>
        <time>2021-11-08T21:43:46.241Z</time>
      </trkpt>
      <trkpt lat="47.556110" lon="8.089809">
        <ele>315.469189</ele>
        <time>2021-11-08T21:43:46.961Z</time>
      </trkpt>
      <trkpt lat="47.556137" lon="8.089730">
        <ele>315.011145</ele>
        <time>2021-11-08T21:43:47.530Z</time>
      </trkpt>
      <trkpt lat="47.556151" lon="8.089459">
        <ele>313.605286</ele>
        <time>2021-11-08T21:43:49.351Z</time>
      </trkpt>
      <trkpt lat="47.556111" lon="8.089266">
        <ele>312.560971</ele>
        <time>2021-11-08T21:43:50.523Z</time>
      </trkpt>
      <trkpt lat="47.556065" lon="8.089084">
        <ele>311.845473</ele>
        <time>2021-11-08T21:43:51.802Z</time>
      </trkpt>
      <trkpt lat="47.555997" lon="8.088801">
        <ele>311.825494</ele>
        <time>2021-11-08T21:43:53.754Z</time>
      </trkpt>
      <trkpt lat="47.555991" lon="8.088778">
        <ele>311.823854</ele>
        <time>2021-11-08T21:43:53.980Z</time>
      </trkpt>
      <trkpt lat="47.555939" lon="8.088552">
        <ele>311.807973</ele>
        <time>2021-11-08T21:43:55.773Z</time>
      </trkpt>
      <trkpt lat="47.555887" lon="8.088299">
        <ele>311.790384</ele>
        <time>2021-11-08T21:43:57.964Z</time>
      </trkpt>
      <trkpt lat="47.555829" lon="8.087941">
        <ele>311.765897</ele>
        <time>2021-11-08T21:44:01.228Z</time>
      </trkpt>
      <trkpt lat="47.555809" lon="8.087783">
        <ele>311.755205</ele>
        <time>2021-11-08T21:44:03.031Z</time>
      </trkpt>
      <trkpt lat="47.555780" lon="8.087557">
        <ele>311.739905</ele>
        <time>2021-11-08T21:44:05.195Z</time>
      </trkpt>
      <trkpt lat="47.555737" lon="8.087083">
        <ele>311.708096</ele>
        <time>2021-11-08T21:44:12.822Z</time>
      </trkpt>
      <trkpt lat="47.555733" lon="8.086819">
        <ele>311.690533</ele>
        <time>2021-11-08T21:44:17.844Z</time>
      </trkpt>
      <trkpt lat="47.555764" lon="8.085769">
        <ele>313.963118</ele>
        <time>2021-11-08T21:44:39.680Z</time>
      </trkpt>
      <trkpt lat="47.555899" lon="8.084472">
        <ele>317.856824</ele>
        <time>2021-11-08T21:45:09.091Z</time>
      </trkpt>
      <trkpt lat="47.555956" lon="8.084115">
        <ele>318.945282</ele>
        <time>2021-11-08T21:45:17.845Z</time>
      </trkpt>
      <trkpt lat="47.556083" lon="8.083354">
        <ele>321.543747</ele>
        <time>2021-11-08T21:45:36.043Z</time>
      </trkpt>
      <trkpt lat="47.556470" lon="8.081563">
        <ele>328.022379</ele>
        <time>2021-11-08T21:46:22.772Z</time>
      </trkpt>
      <trkpt lat="47.556853" lon="8.080477">
        <ele>330.775103</ele>
        <time>2021-11-08T21:46:48.845Z</time>
      </trkpt>
      <trkpt lat="47.557099" lon="8.079786">
        <ele>332.331502</ele>
        <time>2021-11-08T21:47:03.170Z</time>
      </trkpt>
      <trkpt lat="47.557256" lon="8.079416">
        <ele>333.202205</ele>
        <time>2021-11-08T21:47:09.889Z</time>
      </trkpt>
      <trkpt lat="47.557793" lon="8.078299">
        <ele>333.586245</ele>
        <time>2021-11-08T21:47:26.191Z</time>
      </trkpt>
      <trkpt lat="47.558613" lon="8.076826">
        <ele>332.496473</ele>
        <time>2021-11-08T21:47:40.755Z</time>
      </trkpt>
      <trkpt lat="47.559046" lon="8.076086">
        <ele>331.440874</ele>
        <time>2021-11-08T21:47:48.135Z</time>
      </trkpt>
      <trkpt lat="47.559426" lon="8.075372">
        <ele>330.460842</ele>
        <time>2021-11-08T21:47:55.132Z</time>
      </trkpt>
      <trkpt lat="47.559811" lon="8.074398">
        <ele>329.264484</ele>
        <time>2021-11-08T21:48:04.026Z</time>
      </trkpt>
      <trkpt lat="47.560318" lon="8.072316">
        <ele>326.924235</ele>
        <time>2021-11-08T21:48:21.298Z</time>
      </trkpt>
      <trkpt lat="47.560524" lon="8.071179">
        <ele>325.128840</ele>
        <time>2021-11-08T21:48:29.864Z</time>
      </trkpt>
      <trkpt lat="47.560553" lon="8.071099">
        <ele>324.990347</ele>
        <time>2021-11-08T21:48:30.475Z</time>
      </trkpt>
      <trkpt lat="47.560584" lon="8.070919">
        <ele>324.707040</ele>
        <time>2021-11-08T21:48:31.785Z</time>
      </trkpt>
      <trkpt lat="47.560739" lon="8.070551">
        <ele>324.045473</ele>
        <time>2021-11-08T21:48:34.872Z</time>
      </trkpt>
      <trkpt lat="47.560864" lon="8.070015">
        <ele>323.180613</ele>
        <time>2021-11-08T21:48:38.894Z</time>
      </trkpt>
      <trkpt lat="47.560904" lon="8.069780">
        <ele>322.876160</ele>
        <time>2021-11-08T21:48:40.639Z</time>
      </trkpt>
      <trkpt lat="47.560998" lon="8.069237">
        <ele>322.348437</ele>
        <time>2021-11-08T21:48:44.719Z</time>
      </trkpt>
      <trkpt lat="47.561130" lon="8.068650">
        <ele>321.765971</ele>
        <time>2021-11-08T21:48:49.389Z</time>
      </trkpt>
      <trkpt lat="47.561187" lon="8.068256">
        <ele>321.386640</ele>
        <time>2021-11-08T21:48:52.664Z</time>
      </trkpt>
      <trkpt lat="47.561229" lon="8.067903">
        <ele>321.049208</ele>
        <time>2021-11-08T21:48:55.702Z</time>
      </trkpt>
      <trkpt lat="47.561265" lon="8.067435">
        <ele>320.605790</ele>
        <time>2021-11-08T21:48:59.683Z</time>
      </trkpt>
      <trkpt lat="47.561276" lon="8.067022">
        <ele>320.460727</ele>
        <time>2021-11-08T21:49:03.601Z</time>
      </trkpt>
      <trkpt lat="47.561253" lon="8.066385">
        <ele>320.434063</ele>
        <time>2021-11-08T21:49:10.116Z</time>
      </trkpt>
      <trkpt lat="47.561108" lon="8.065242">
        <ele>320.385448</ele>
        <time>2021-11-08T21:49:22.482Z</time>
      </trkpt>
      <trkpt lat="47.561017" lon="8.064820">
        <ele>320.366929</ele>
        <time>2021-11-08T21:49:27.122Z</time>
      </trkpt>
      <trkpt lat="47.560887" lon="8.064271">
        <ele>320.156463</ele>
        <time>2021-11-08T21:49:32.319Z</time>
      </trkpt>
      <trkpt lat="47.560806" lon="8.064037">
        <ele>320.032047</ele>
        <time>2021-11-08T21:49:34.588Z</time>
      </trkpt>
      <trkpt lat="47.560719" lon="8.063873">
        <ele>319.933358</ele>
        <time>2021-11-08T21:49:36.371Z</time>
      </trkpt>
      <trkpt lat="47.560392" lon="8.063300">
        <ele>319.578341</ele>
        <time>2021-11-08T21:49:42.669Z</time>
      </trkpt>
      <trkpt lat="47.560335" lon="8.063169">
        <ele>319.504600</ele>
        <time>2021-11-08T21:49:44.016Z</time>
      </trkpt>
      <trkpt lat="47.560443" lon="8.063042">
        <ele>319.407943</ele>
        <time>2021-11-08T21:49:45.685Z</time>
      </trkpt>
      <trkpt lat="47.560545" lon="8.062928">
        <ele>319.318377</ele>
        <time>2021-11-08T21:49:47.251Z</time>
      </trkpt>
      <trkpt lat="47.560580" lon="8.062890">
        <ele>319.287959</ele>
        <time>2021-11-08T21:49:47.787Z</time>
      </trkpt>
      <trkpt lat="47.560673" lon="8.062786">
        <ele>319.206279</ele>
        <time>2021-11-08T21:49:49.858Z</time>
      </trkpt>
      <trkpt lat="47.560765" lon="8.062729">
        <ele>319.136372</ele>
        <time>2021-11-08T21:49:51.610Z</time>
      </trkpt>
      <trkpt lat="47.560570" lon="8.061926">
        <ele>318.719895</ele>
        <time>2021-11-08T21:49:58.966Z</time>
      </trkpt>
      <trkpt lat="47.560335" lon="8.060984">
        <ele>318.228279</ele>
        <time>2021-11-08T21:50:07.295Z</time>
      </trkpt>
      <trkpt lat="47.560293" lon="8.060828">
        <ele>318.146062</ele>
        <time>2021-11-08T21:50:08.725Z</time>
      </trkpt>
      <trkpt lat="47.560262" lon="8.060729">
        <ele>318.092638</ele>
        <time>2021-11-08T21:50:09.680Z</time>
      </trkpt>
      <trkpt lat="47.560130" lon="8.060196">
        <ele>317.814714</ele>
        <time>2021-11-08T21:50:14.880Z</time>
      </trkpt>
      <trkpt lat="47.560069" lon="8.059943">
        <ele>317.751014</ele>
        <time>2021-11-08T21:50:17.291Z</time>
      </trkpt>
      <trkpt lat="47.560040" lon="8.059827">
        <ele>317.727204</ele>
        <time>2021-11-08T21:50:18.509Z</time>
      </trkpt>
      <trkpt lat="47.560019" lon="8.059741">
        <ele>317.709600</ele>
        <time>2021-11-08T21:50:19.399Z</time>
      </trkpt>
      <trkpt lat="47.559979" lon="8.059591">
        <ele>317.678556</ele>
        <time>2021-11-08T21:50:20.860Z</time>
      </trkpt>
      <trkpt lat="47.559859" lon="8.059093">
        <ele>317.576774</ele>
        <time>2021-11-08T21:50:25.883Z</time>
      </trkpt>
      <trkpt lat="47.559725" lon="8.058554">
        <ele>317.466212</ele>
        <time>2021-11-08T21:50:31.293Z</time>
      </trkpt>
      <trkpt lat="47.559654" lon="8.058257">
        <ele>317.405565</ele>
        <time>2021-11-08T21:50:34.244Z</time>
      </trkpt>
      <trkpt lat="47.559579" lon="8.057955">
        <ele>317.343624</ele>
        <time>2021-11-08T21:50:37.149Z</time>
      </trkpt>
      <trkpt lat="47.559548" lon="8.057827">
        <ele>317.317448</ele>
        <time>2021-11-08T21:50:38.444Z</time>
      </trkpt>
      <trkpt lat="47.559447" lon="8.057490">
        <ele>317.260934</ele>
        <time>2021-11-08T21:50:41.872Z</time>
      </trkpt>
      <trkpt lat="47.559294" lon="8.057130">
        <ele>317.212440</ele>
        <time>2021-11-08T21:50:46.011Z</time>
      </trkpt>
      <trkpt lat="47.559116" lon="8.056760">
        <ele>317.160646</ele>
        <time>2021-11-08T21:50:50.449Z</time>
      </trkpt>
      <trkpt lat="47.558662" lon="8.056061">
        <ele>317.050062</ele>
        <time>2021-11-08T21:50:59.786Z</time>
      </trkpt>
      <trkpt lat="47.558447" lon="8.055831">
        <ele>317.005272</ele>
        <time>2021-11-08T21:51:03.318Z</time>
      </trkpt>
      <trkpt lat="47.558239" lon="8.055639">
        <ele>316.979738</ele>
        <time>2021-11-08T21:51:06.999Z</time>
      </trkpt>
      <trkpt lat="47.558012" lon="8.055477">
        <ele>316.984555</ele>
        <time>2021-11-08T21:51:10.644Z</time>
      </trkpt>
      <trkpt lat="47.557918" lon="8.055409">
        <ele>316.986555</ele>
        <time>2021-11-08T21:51:12.442Z</time>
      </trkpt>
      <trkpt lat="47.557710" lon="8.055283">
        <ele>316.990851</ele>
        <time>2021-11-08T21:51:15.807Z</time>
      </trkpt>
      <trkpt lat="47.557500" lon="8.055133">
        <ele>316.995309</ele>
        <time>2021-11-08T21:51:19.632Z</time>
      </trkpt>
      <trkpt lat="47.557273" lon="8.054941">
        <ele>317.000306</ele>
        <time>2021-11-08T21:51:23.872Z</time>
      </trkpt>
      <trkpt lat="47.557097" lon="8.054768">
        <ele>317.004344</ele>
        <time>2021-11-08T21:51:26.836Z</time>
      </trkpt>
      <trkpt lat="47.557019" lon="8.054678">
        <ele>317.006234</ele>
        <time>2021-11-08T21:51:28.641Z</time>
      </trkpt>
      <trkpt lat="47.556494" lon="8.054073">
        <ele>317.031680</ele>
        <time>2021-11-08T21:51:37.493Z</time>
      </trkpt>
      <trkpt lat="47.556239" lon="8.053780">
        <ele>317.050053</ele>
        <time>2021-11-08T21:51:41.899Z</time>
      </trkpt>
      <trkpt lat="47.556032" lon="8.053510">
        <ele>317.065755</ele>
        <time>2021-11-08T21:51:46.123Z</time>
      </trkpt>
      <trkpt lat="47.555890" lon="8.053286">
        <ele>317.077565</ele>
        <time>2021-11-08T21:51:49.760Z</time>
      </trkpt>
      <trkpt lat="47.555773" lon="8.053070">
        <ele>317.088208</ele>
        <time>2021-11-08T21:51:52.701Z</time>
      </trkpt>
      <trkpt lat="47.555603" lon="8.052757">
        <ele>317.103646</ele>
        <time>2021-11-08T21:51:56.923Z</time>
      </trkpt>
      <trkpt lat="47.555259" lon="8.052135">
        <ele>317.501546</ele>
        <time>2021-11-08T21:52:05.620Z</time>
      </trkpt>
      <trkpt lat="47.554988" lon="8.051475">
        <ele>318.086506</ele>
        <time>2021-11-08T21:52:14.611Z</time>
      </trkpt>
      <trkpt lat="47.554715" lon="8.050527">
        <ele>318.866927</ele>
        <time>2021-11-08T21:52:29.401Z</time>
      </trkpt>
      <trkpt lat="47.554412" lon="8.049127">
        <ele>320.571542</ele>
        <time>2021-11-08T21:52:51.962Z</time>
      </trkpt>
      <trkpt lat="47.554309" lon="8.048719">
        <ele>321.131604</ele>
        <time>2021-11-08T21:52:58.978Z</time>
      </trkpt>
      <trkpt lat="47.553996" lon="8.047557">
        <ele>322.591037</ele>
        <time>2021-11-08T21:53:18.209Z</time>
      </trkpt>
      <trkpt lat="47.553619" lon="8.046372">
        <ele>322.885879</ele>
        <time>2021-11-08T21:53:34.645Z</time>
      </trkpt>
      <trkpt lat="47.552844" lon="8.044355">
        <ele>321.929443</ele>
        <time>2021-11-08T21:53:54.575Z</time>
      </trkpt>
      <trkpt lat="47.551627" lon="8.041127">
        <ele>317.084874</ele>
        <time>2021-11-08T21:54:21.328Z</time>
      </trkpt>
      <trkpt lat="47.551167" lon="8.039905">
        <ele>315.823897</ele>
        <time>2021-11-08T21:54:31.959Z</time>
      </trkpt>
      <trkpt lat="47.551001" lon="8.039426">
        <ele>315.518253</ele>
        <time>2021-11-08T21:54:36.314Z</time>
      </trkpt>
      <trkpt lat="47.550515" lon="8.038174">
        <ele>314.907033</ele>
        <time>2021-11-08T21:54:50.017Z</time>
      </trkpt>
      <trkpt lat="47.550424" lon="8.037956">
        <ele>315.041248</ele>
        <time>2021-11-08T21:54:52.987Z</time>
      </trkpt>
      <trkpt lat="47.550111" lon="8.037123">
        <ele>315.540455</ele>
        <time>2021-11-08T21:55:05.355Z</time>
      </trkpt>
      <trkpt lat="47.549832" lon="8.036349">
        <ele>315.999912</ele>
        <time>2021-11-08T21:55:16.638Z</time>
      </trkpt>
      <trkpt lat="47.549753" lon="8.036077">
        <ele>316.154964</ele>
        <time>2021-11-08T21:55:20.127Z</time>
      </trkpt>
      <trkpt lat="47.549699" lon="8.035900">
        <ele>316.226319</ele>
        <time>2021-11-08T21:55:22.574Z</time>
      </trkpt>
      <trkpt lat="47.549632" lon="8.035633">
        <ele>316.292201</ele>
        <time>2021-11-08T21:55:26.060Z</time>
      </trkpt>
      <trkpt lat="47.549554" lon="8.035288">
        <ele>316.376352</ele>
        <time>2021-11-08T21:55:30.352Z</time>
      </trkpt>
      <trkpt lat="47.549494" lon="8.034935">
        <ele>316.460544</ele>
        <time>2021-11-08T21:55:34.336Z</time>
      </trkpt>
      <trkpt lat="47.549442" lon="8.034584">
        <ele>316.543657</ele>
        <time>2021-11-08T21:55:38.191Z</time>
      </trkpt>
      <trkpt lat="47.549395" lon="8.034029">
        <ele>316.673026</ele>
        <time>2021-11-08T21:55:44.253Z</time>
      </trkpt>
      <trkpt lat="47.549394" lon="8.034003">
        <ele>316.679049</ele>
        <time>2021-11-08T21:55:44.567Z</time>
      </trkpt>
      <trkpt lat="47.549386" lon="8.033799">
        <ele>316.726310</ele>
        <time>2021-11-08T21:55:46.732Z</time>
      </trkpt>
      <trkpt lat="47.549374" lon="8.033423">
        <ele>316.813370</ele>
        <time>2021-11-08T21:55:50.365Z</time>
      </trkpt>
      <trkpt lat="47.549363" lon="8.032869">
        <ele>316.830518</ele>
        <time>2021-11-08T21:55:55.621Z</time>
      </trkpt>
      <trkpt lat="47.549368" lon="8.032544">
        <ele>316.837784</ele>
        <time>2021-11-08T21:55:58.596Z</time>
      </trkpt>
      <trkpt lat="47.549372" lon="8.031883">
        <ele>316.852559</ele>
        <time>2021-11-08T21:56:04.952Z</time>
      </trkpt>
      <trkpt lat="47.549378" lon="8.030790">
        <ele>316.876990</ele>
        <time>2021-11-08T21:56:16.281Z</time>
      </trkpt>
      <trkpt lat="47.549380" lon="8.030702">
        <ele>316.888943</ele>
        <time>2021-11-08T21:56:17.121Z</time>
      </trkpt>
      <trkpt lat="47.549418" lon="8.028906">
        <ele>317.459596</ele>
        <time>2021-11-08T21:56:37.828Z</time>
      </trkpt>
      <trkpt lat="47.549431" lon="8.028306">
        <ele>317.650242</ele>
        <time>2021-11-08T21:56:44.573Z</time>
      </trkpt>
      <trkpt lat="47.549445" lon="8.027599">
        <ele>317.911085</ele>
        <time>2021-11-08T21:56:52.750Z</time>
      </trkpt>
      <trkpt lat="47.549454" lon="8.027138">
        <ele>318.092829</ele>
        <time>2021-11-08T21:56:58.276Z</time>
      </trkpt>
      <trkpt lat="47.549436" lon="8.026046">
        <ele>318.523285</ele>
        <time>2021-11-08T21:57:11.560Z</time>
      </trkpt>
      <trkpt lat="47.549322" lon="8.024323">
        <ele>318.777116</ele>
        <time>2021-11-08T21:57:30.165Z</time>
      </trkpt>
      <trkpt lat="47.549268" lon="8.023385">
        <ele>318.779245</ele>
        <time>2021-11-08T21:57:39.612Z</time>
      </trkpt>
      <trkpt lat="47.549201" lon="8.022146">
        <ele>318.410105</ele>
        <time>2021-11-08T21:57:50.828Z</time>
      </trkpt>
      <trkpt lat="47.549191" lon="8.021436">
        <ele>317.980779</ele>
        <time>2021-11-08T21:57:56.796Z</time>
      </trkpt>
      <trkpt lat="47.549186" lon="8.021006">
        <ele>317.720782</ele>
        <time>2021-11-08T21:58:00.380Z</time>
      </trkpt>
      <trkpt lat="47.549208" lon="8.019997">
        <ele>317.069083</ele>
        <time>2021-11-08T21:58:08.614Z</time>
      </trkpt>
      <trkpt lat="47.549261" lon="8.017878">
        <ele>314.890514</ele>
        <time>2021-11-08T21:58:24.735Z</time>
      </trkpt>
      <trkpt lat="47.549256" lon="8.017769">
        <ele>314.778269</ele>
        <time>2021-11-08T21:58:25.600Z</time>
      </trkpt>
      <trkpt lat="47.549291" lon="8.017761">
        <ele>314.724362</ele>
        <time>2021-11-08T21:58:25.996Z</time>
      </trkpt>
      <trkpt lat="47.549324" lon="8.017738">
        <ele>314.668850</ele>
        <time>2021-11-08T21:58:26.386Z</time>
      </trkpt>
      <trkpt lat="47.549351" lon="8.017702">
        <ele>314.613558</ele>
        <time>2021-11-08T21:58:26.788Z</time>
      </trkpt>
      <trkpt lat="47.549370" lon="8.017656">
        <ele>314.558151</ele>
        <time>2021-11-08T21:58:27.247Z</time>
      </trkpt>
      <trkpt lat="47.549379" lon="8.017603">
        <ele>314.502001</ele>
        <time>2021-11-08T21:58:27.653Z</time>
      </trkpt>
      <trkpt lat="47.549377" lon="8.017547">
        <ele>314.444386</ele>
        <time>2021-11-08T21:58:28.211Z</time>
      </trkpt>
      <trkpt lat="47.549310" lon="8.017418">
        <ele>314.307567</ele>
        <time>2021-11-08T21:58:29.558Z</time>
      </trkpt>
      <trkpt lat="47.549274" lon="8.017401">
        <ele>314.261365</ele>
        <time>2021-11-08T21:58:30.039Z</time>
      </trkpt>
      <trkpt lat="47.549281" lon="8.017304">
        <ele>314.180852</ele>
        <time>2021-11-08T21:58:30.755Z</time>
      </trkpt>
      <trkpt lat="47.549431" lon="8.015998">
        <ele>313.087482</ele>
        <time>2021-11-08T21:58:41.499Z</time>
      </trkpt>
      <trkpt lat="47.549589" lon="8.015316">
        <ele>312.492377</ele>
        <time>2021-11-08T21:58:47.343Z</time>
      </trkpt>
      <trkpt lat="47.549795" lon="8.014667">
        <ele>311.841488</ele>
        <time>2021-11-08T21:58:53.159Z</time>
      </trkpt>
      <trkpt lat="47.549871" lon="8.014427">
        <ele>311.583818</ele>
        <time>2021-11-08T21:58:55.294Z</time>
      </trkpt>
      <trkpt lat="47.550001" lon="8.014034">
        <ele>311.158428</ele>
        <time>2021-11-08T21:58:58.682Z</time>
      </trkpt>
      <trkpt lat="47.550565" lon="8.012461">
        <ele>309.581331</ele>
        <time>2021-11-08T21:59:12.289Z</time>
      </trkpt>
      <trkpt lat="47.550764" lon="8.011985">
        <ele>309.427125</ele>
        <time>2021-11-08T21:59:16.789Z</time>
      </trkpt>
      <trkpt lat="47.551187" lon="8.011080">
        <ele>309.123951</ele>
        <time>2021-11-08T21:59:26.907Z</time>
      </trkpt>
      <trkpt lat="47.551275" lon="8.010934">
        <ele>309.070042</ele>
        <time>2021-11-08T21:59:28.717Z</time>
      </trkpt>
      <trkpt lat="47.551902" lon="8.009884">
        <ele>309.493955</ele>
        <time>2021-11-08T21:59:45.671Z</time>
      </trkpt>
      <trkpt lat="47.552604" lon="8.008677">
        <ele>310.639081</ele>
        <time>2021-11-08T22:00:08.151Z</time>
      </trkpt>
      <trkpt lat="47.552640" lon="8.008615">
        <ele>310.697861</ele>
        <time>2021-11-08T22:00:09.737Z</time>
      </trkpt>
      <trkpt lat="47.552935" lon="8.007851">
        <ele>310.623381</ele>
        <time>2021-11-08T22:00:19.336Z</time>
      </trkpt>
      <trkpt lat="47.553173" lon="8.006642">
        <ele>310.265702</ele>
        <time>2021-11-08T22:00:30.138Z</time>
      </trkpt>
      <trkpt lat="47.553211" lon="8.006270">
        <ele>310.158847</ele>
        <time>2021-11-08T22:00:33.352Z</time>
      </trkpt>
      <trkpt lat="47.553220" lon="8.006182">
        <ele>310.133568</ele>
        <time>2021-11-08T22:00:33.943Z</time>
      </trkpt>
      <trkpt lat="47.553251" lon="8.005657">
        <ele>309.994800</ele>
        <time>2021-11-08T22:00:38.191Z</time>
      </trkpt>
      <trkpt lat="47.553256" lon="8.004837">
        <ele>309.792558</ele>
        <time>2021-11-08T22:00:45.115Z</time>
      </trkpt>
      <trkpt lat="47.553266" lon="8.003502">
        <ele>309.463290</ele>
        <time>2021-11-08T22:00:57.702Z</time>
      </trkpt>
      <trkpt lat="47.553270" lon="8.002465">
        <ele>309.880227</ele>
        <time>2021-11-08T22:01:10.374Z</time>
      </trkpt>
      <trkpt lat="47.553271" lon="8.002109">
        <ele>310.084880</ele>
        <time>2021-11-08T22:01:15.352Z</time>
      </trkpt>
      <trkpt lat="47.553273" lon="8.001687">
        <ele>310.327479</ele>
        <time>2021-11-08T22:01:21.032Z</time>
      </trkpt>
      <trkpt lat="47.553275" lon="7.999860">
        <ele>310.779100</ele>
        <time>2021-11-08T22:01:43.219Z</time>
      </trkpt>
      <trkpt lat="47.553278" lon="7.999508">
        <ele>310.703752</ele>
        <time>2021-11-08T22:01:46.765Z</time>
      </trkpt>
      <trkpt lat="47.553287" lon="7.998380">
        <ele>310.462300</ele>
        <time>2021-11-08T22:01:56.532Z</time>
      </trkpt>
      <trkpt lat="47.553287" lon="7.997190">
        <ele>309.570432</ele>
        <time>2021-11-08T22:02:05.831Z</time>
      </trkpt>
      <trkpt lat="47.553279" lon="7.996528">
        <ele>308.876475</ele>
        <time>2021-11-08T22:02:10.847Z</time>
      </trkpt>
      <trkpt lat="47.553268" lon="7.996252">
        <ele>308.586693</ele>
        <time>2021-11-08T22:02:12.919Z</time>
      </trkpt>
      <trkpt lat="47.553246" lon="7.995617">
        <ele>307.920270</ele>
        <time>2021-11-08T22:02:17.770Z</time>
      </trkpt>
      <trkpt lat="47.553164" lon="7.993925">
        <ele>306.679429</ele>
        <time>2021-11-08T22:02:31.099Z</time>
      </trkpt>
      <trkpt lat="47.553156" lon="7.993696">
        <ele>306.529014</ele>
        <time>2021-11-08T22:02:33.099Z</time>
      </trkpt>
      <trkpt lat="47.553137" lon="7.993190">
        <ele>306.196589</ele>
        <time>2021-11-08T22:02:37.555Z</time>
      </trkpt>
      <trkpt lat="47.553130" lon="7.993014">
        <ele>306.080941</ele>
        <time>2021-11-08T22:02:39.157Z</time>
      </trkpt>
      <trkpt lat="47.553107" lon="7.992226">
        <ele>305.481497</ele>
        <time>2021-11-08T22:02:46.386Z</time>
      </trkpt>
      <trkpt lat="47.553091" lon="7.991915">
        <ele>305.213820</ele>
        <time>2021-11-08T22:02:49.536Z</time>
      </trkpt>
      <trkpt lat="47.553050" lon="7.990744">
        <ele>304.207503</ele>
        <time>2021-11-08T22:02:59.228Z</time>
      </trkpt>
      <trkpt lat="47.553126" lon="7.990240">
        <ele>303.764301</ele>
        <time>2021-11-08T22:03:03.141Z</time>
      </trkpt>
      <trkpt lat="47.553146" lon="7.990113">
        <ele>303.652380</ele>
        <time>2021-11-08T22:03:04.069Z</time>
      </trkpt>
      <trkpt lat="47.553163" lon="7.990004">
        <ele>303.556370</ele>
        <time>2021-11-08T22:03:04.854Z</time>
      </trkpt>
      <trkpt lat="47.553214" lon="7.989758">
        <ele>302.960986</ele>
        <time>2021-11-08T22:03:06.633Z</time>
      </trkpt>
      <trkpt lat="47.553253" lon="7.989578">
        <ele>302.505289</ele>
        <time>2021-11-08T22:03:07.923Z</time>
      </trkpt>
      <trkpt lat="47.553352" lon="7.989142">
        <ele>301.396436</ele>
        <time>2021-11-08T22:03:11.018Z</time>
      </trkpt>
      <trkpt lat="47.553424" lon="7.988762">
        <ele>300.445044</ele>
        <time>2021-11-08T22:03:13.663Z</time>
      </trkpt>
      <trkpt lat="47.553410" lon="7.988607">
        <ele>300.068090</ele>
        <time>2021-11-08T22:03:14.695Z</time>
      </trkpt>
      <trkpt lat="47.553343" lon="7.988401">
        <ele>299.516881</ele>
        <time>2021-11-08T22:03:16.217Z</time>
      </trkpt>
      <trkpt lat="47.553232" lon="7.988247">
        <ele>298.973771</ele>
        <time>2021-11-08T22:03:17.688Z</time>
      </trkpt>
      <trkpt lat="47.552867" lon="7.987810">
        <ele>297.297745</ele>
        <time>2021-11-08T22:03:22.257Z</time>
      </trkpt>
      <trkpt lat="47.552713" lon="7.987638">
        <ele>296.795429</ele>
        <time>2021-11-08T22:03:24.094Z</time>
      </trkpt>
      <trkpt lat="47.552504" lon="7.987369">
        <ele>296.168450</ele>
        <time>2021-11-08T22:03:26.806Z</time>
      </trkpt>
      <trkpt lat="47.552436" lon="7.987273">
        <ele>295.955733</ele>
        <time>2021-11-08T22:03:27.748Z</time>
      </trkpt>
      <trkpt lat="47.552224" lon="7.986975">
        <ele>295.293918</ele>
        <time>2021-11-08T22:03:30.734Z</time>
      </trkpt>
      <trkpt lat="47.552152" lon="7.986883">
        <ele>295.078595</ele>
        <time>2021-11-08T22:03:31.714Z</time>
      </trkpt>
      <trkpt lat="47.551971" lon="7.986555">
        <ele>294.430991</ele>
        <time>2021-11-08T22:03:34.713Z</time>
      </trkpt>
      <trkpt lat="47.551917" lon="7.986288">
        <ele>294.004945</ele>
        <time>2021-11-08T22:03:36.793Z</time>
      </trkpt>
      <trkpt lat="47.551915" lon="7.986209">
        <ele>293.884107</ele>
        <time>2021-11-08T22:03:37.354Z</time>
      </trkpt>
      <trkpt lat="47.551898" lon="7.985654">
        <ele>293.053500</ele>
        <time>2021-11-08T22:03:42.862Z</time>
      </trkpt>
      <trkpt lat="47.551939" lon="7.985151">
        <ele>293.690133</ele>
        <time>2021-11-08T22:03:49.017Z</time>
      </trkpt>
      <trkpt lat="47.551934" lon="7.984260">
        <ele>294.809748</ele>
        <time>2021-11-08T22:04:02.603Z</time>
      </trkpt>
      <trkpt lat="47.551993" lon="7.984014">
        <ele>295.137794</ele>
        <time>2021-11-08T22:04:06.208Z</time>
      </trkpt>
      <trkpt lat="47.552007" lon="7.983931">
        <ele>295.245294</ele>
        <time>2021-11-08T22:04:07.782Z</time>
      </trkpt>
      <trkpt lat="47.552005" lon="7.983849">
        <ele>295.348398</ele>
        <time>2021-11-08T22:04:09.864Z</time>
      </trkpt>
      <trkpt lat="47.551911" lon="7.983632">
        <ele>295.672396</ele>
        <time>2021-11-08T22:04:14.057Z</time>
      </trkpt>
      <trkpt lat="47.551892" lon="7.983447">
        <ele>295.907532</ele>
        <time>2021-11-08T22:04:17.401Z</time>
      </trkpt>
      <trkpt lat="47.551861" lon="7.981113">
        <ele>299.496496</ele>
        <time>2021-11-08T22:05:00.691Z</time>
      </trkpt>
      <trkpt lat="47.551865" lon="7.980584">
        <ele>300.339347</ele>
        <time>2021-11-08T22:05:07.331Z</time>
      </trkpt>
      <trkpt lat="47.551873" lon="7.980135">
        <ele>300.591458</ele>
        <time>2021-11-08T22:05:12.087Z</time>
      </trkpt>
      <trkpt lat="47.551933" lon="7.979363">
        <ele>300.448151</ele>
        <time>2021-11-08T22:05:20.446Z</time>
      </trkpt>
      <trkpt lat="47.551923" lon="7.979308">
        <ele>300.437646</ele>
        <time>2021-11-08T22:05:20.814Z</time>
      </trkpt>
      <trkpt lat="47.551901" lon="7.979190">
        <ele>300.415071</ele>
        <time>2021-11-08T22:05:21.785Z</time>
      </trkpt>
      <trkpt lat="47.551829" lon="7.976305">
        <ele>299.989244</ele>
        <time>2021-11-08T22:05:46.834Z</time>
      </trkpt>
      <trkpt lat="47.551793" lon="7.974325">
        <ele>299.861632</ele>
        <time>2021-11-08T22:06:08.947Z</time>
      </trkpt>
      <trkpt lat="47.551755" lon="7.972603">
        <ele>299.879134</ele>
        <time>2021-11-08T22:06:26.245Z</time>
      </trkpt>
      <trkpt lat="47.551725" lon="7.970823">
        <ele>299.300816</ele>
        <time>2021-11-08T22:06:41.474Z</time>
      </trkpt>
      <trkpt lat="47.551734" lon="7.970034">
        <ele>299.013487</ele>
        <time>2021-11-08T22:06:48.434Z</time>
      </trkpt>
      <trkpt lat="47.551750" lon="7.968659">
        <ele>298.928693</ele>
        <time>2021-11-08T22:07:01.624Z</time>
      </trkpt>
      <trkpt lat="47.551825" lon="7.968445">
        <ele>298.932667</ele>
        <time>2021-11-08T22:07:03.876Z</time>
      </trkpt>
      <trkpt lat="47.551847" lon="7.968315">
        <ele>298.934876</ele>
        <time>2021-11-08T22:07:05.346Z</time>
      </trkpt>
      <trkpt lat="47.551839" lon="7.968208">
        <ele>298.936650</ele>
        <time>2021-11-08T22:07:06.549Z</time>
      </trkpt>
      <trkpt lat="47.551767" lon="7.967910">
        <ele>298.941867</ele>
        <time>2021-11-08T22:07:09.782Z</time>
      </trkpt>
      <trkpt lat="47.551902" lon="7.964650">
        <ele>299.570334</ele>
        <time>2021-11-08T22:07:46.183Z</time>
      </trkpt>
      <trkpt lat="47.551918" lon="7.963725">
        <ele>299.494580</ele>
        <time>2021-11-08T22:07:55.581Z</time>
      </trkpt>
      <trkpt lat="47.551906" lon="7.962453">
        <ele>299.295195</ele>
        <time>2021-11-08T22:08:07.510Z</time>
      </trkpt>
      <trkpt lat="47.551859" lon="7.961133">
        <ele>298.992289</ele>
        <time>2021-11-08T22:08:19.095Z</time>
      </trkpt>
      <trkpt lat="47.551894" lon="7.960729">
        <ele>298.871335</ele>
        <time>2021-11-08T22:08:22.846Z</time>
      </trkpt>
      <trkpt lat="47.551882" lon="7.960631">
        <ele>298.841758</ele>
        <time>2021-11-08T22:08:23.615Z</time>
      </trkpt>
      <trkpt lat="47.551865" lon="7.960528">
        <ele>298.810270</ele>
        <time>2021-11-08T22:08:24.561Z</time>
      </trkpt>
      <trkpt lat="47.551677" lon="7.960100">
        <ele>298.658626</ele>
        <time>2021-11-08T22:08:29.085Z</time>
      </trkpt>
      <trkpt lat="47.551300" lon="7.958844">
        <ele>298.391552</ele>
        <time>2021-11-08T22:08:41.996Z</time>
      </trkpt>
      <trkpt lat="47.550869" lon="7.957700">
        <ele>298.360847</ele>
        <time>2021-11-08T22:08:55.360Z</time>
      </trkpt>
      <trkpt lat="47.550745" lon="7.957569">
        <ele>298.355559</ele>
        <time>2021-11-08T22:08:57.599Z</time>
      </trkpt>
      <trkpt lat="47.550735" lon="7.957541">
        <ele>298.354816</ele>
        <time>2021-11-08T22:08:58.041Z</time>
      </trkpt>
      <trkpt lat="47.550613" lon="7.957254">
        <ele>298.346867</ele>
        <time>2021-11-08T22:09:01.379Z</time>
      </trkpt>
      <trkpt lat="47.550549" lon="7.957126">
        <ele>298.343134</ele>
        <time>2021-11-08T22:09:02.927Z</time>
      </trkpt>
      <trkpt lat="47.550445" lon="7.956918">
        <ele>298.357572</ele>
        <time>2021-11-08T22:09:05.600Z</time>
      </trkpt>
      <trkpt lat="47.550380" lon="7.956806">
        <ele>298.371333</ele>
        <time>2021-11-08T22:09:07.084Z</time>
      </trkpt>
      <trkpt lat="47.550205" lon="7.956552">
        <ele>298.405148</ele>
        <time>2021-11-08T22:09:10.794Z</time>
      </trkpt>
      <trkpt lat="47.549444" lon="7.955496">
        <ele>298.549068</ele>
        <time>2021-11-08T22:09:27.161Z</time>
      </trkpt>
      <trkpt lat="47.549157" lon="7.955099">
        <ele>298.610064</ele>
        <time>2021-11-08T22:09:32.961Z</time>
      </trkpt>
      <trkpt lat="47.549042" lon="7.954942">
        <ele>298.642279</ele>
        <time>2021-11-08T22:09:35.313Z</time>
      </trkpt>
      <trkpt lat="47.548833" lon="7.954652">
        <ele>298.701268</ele>
        <time>2021-11-08T22:09:39.670Z</time>
      </trkpt>
      <trkpt lat="47.548542" lon="7.954269">
        <ele>298.781453</ele>
        <time>2021-11-08T22:09:45.687Z</time>
      </trkpt>
      <trkpt lat="47.548342" lon="7.954009">
        <ele>298.836266</ele>
        <time>2021-11-08T22:09:49.869Z</time>
      </trkpt>
      <trkpt lat="47.548251" lon="7.953895">
        <ele>298.860816</ele>
        <time>2021-11-08T22:09:51.798Z</time>
      </trkpt>
      <trkpt lat="47.548115" lon="7.953729">
        <ele>298.897116</ele>
        <time>2021-11-08T22:09:54.666Z</time>
      </trkpt>
      <trkpt lat="47.547994" lon="7.953584">
        <ele>298.929176</ele>
        <time>2021-11-08T22:09:57.228Z</time>
      </trkpt>
      <trkpt lat="47.547871" lon="7.953437">
        <ele>298.963325</ele>
        <time>2021-11-08T22:09:59.819Z</time>
      </trkpt>
      <trkpt lat="47.547797" lon="7.953355">
        <ele>298.999766</ele>
        <time>2021-11-08T22:10:01.323Z</time>
      </trkpt>
      <trkpt lat="47.547624" lon="7.953160">
        <ele>299.085488</ele>
        <time>2021-11-08T22:10:04.816Z</time>
      </trkpt>
      <trkpt lat="47.547550" lon="7.953078">
        <ele>299.121929</ele>
        <time>2021-11-08T22:10:06.317Z</time>
      </trkpt>
      <trkpt lat="47.547458" lon="7.952975">
        <ele>299.167403</ele>
        <time>2021-11-08T22:10:08.145Z</time>
      </trkpt>
      <trkpt lat="47.547400" lon="7.952910">
        <ele>299.196082</ele>
        <time>2021-11-08T22:10:09.310Z</time>
      </trkpt>
      <trkpt lat="47.547090" lon="7.952543">
        <ele>299.352565</ele>
        <time>2021-11-08T22:10:15.699Z</time>
      </trkpt>
      <trkpt lat="47.546935" lon="7.952372">
        <ele>299.428774</ele>
        <time>2021-11-08T22:10:18.857Z</time>
      </trkpt>
      <trkpt lat="47.546776" lon="7.952185">
        <ele>299.508831</ele>
        <time>2021-11-08T22:10:22.299Z</time>
      </trkpt>
      <trkpt lat="47.546695" lon="7.952091">
        <ele>299.549406</ele>
        <time>2021-11-08T22:10:24.075Z</time>
      </trkpt>
      <trkpt lat="47.546634" lon="7.952024">
        <ele>299.579351</ele>
        <time>2021-11-08T22:10:25.398Z</time>
      </trkpt>
      <trkpt lat="47.546421" lon="7.951793">
        <ele>299.664055</ele>
        <time>2021-11-08T22:10:29.961Z</time>
      </trkpt>
      <trkpt lat="47.546231" lon="7.951558">
        <ele>299.628102</ele>
        <time>2021-11-08T22:10:34.119Z</time>
      </trkpt>
      <trkpt lat="47.546212" lon="7.951535">
        <ele>299.624537</ele>
        <time>2021-11-08T22:10:34.529Z</time>
      </trkpt>
      <trkpt lat="47.546135" lon="7.951406">
        <ele>299.607653</ele>
        <time>2021-11-08T22:10:36.292Z</time>
      </trkpt>
      <trkpt lat="47.545886" lon="7.951110">
        <ele>299.561279</ele>
        <time>2021-11-08T22:10:41.158Z</time>
      </trkpt>
      <trkpt lat="47.545824" lon="7.951061">
        <ele>299.551072</ele>
        <time>2021-11-08T22:10:42.207Z</time>
      </trkpt>
      <trkpt lat="47.545759" lon="7.950982">
        <ele>299.538859</ele>
        <time>2021-11-08T22:10:43.478Z</time>
      </trkpt>
      <trkpt lat="47.545727" lon="7.950947">
        <ele>299.533081</ele>
        <time>2021-11-08T22:10:44.215Z</time>
      </trkpt>
      <trkpt lat="47.545625" lon="7.950829">
        <ele>299.514283</ele>
        <time>2021-11-08T22:10:45.909Z</time>
      </trkpt>
      <trkpt lat="47.545567" lon="7.950765">
        <ele>299.503778</ele>
        <time>2021-11-08T22:10:46.911Z</time>
      </trkpt>
      <trkpt lat="47.545494" lon="7.950684">
        <ele>299.490529</ele>
        <time>2021-11-08T22:10:48.153Z</time>
      </trkpt>
      <trkpt lat="47.545434" lon="7.950668">
        <ele>299.481674</ele>
        <time>2021-11-08T22:10:49.141Z</time>
      </trkpt>
      <trkpt lat="47.545166" lon="7.950366">
        <ele>299.432762</ele>
        <time>2021-11-08T22:10:53.502Z</time>
      </trkpt>
      <trkpt lat="47.544901" lon="7.950044">
        <ele>299.390583</ele>
        <time>2021-11-08T22:10:57.737Z</time>
      </trkpt>
      <trkpt lat="47.544521" lon="7.949558">
        <ele>299.339820</ele>
        <time>2021-11-08T22:11:03.926Z</time>
      </trkpt>
      <trkpt lat="47.544239" lon="7.949202">
        <ele>299.302355</ele>
        <time>2021-11-08T22:11:08.834Z</time>
      </trkpt>
      <trkpt lat="47.543864" lon="7.948694">
        <ele>299.250973</ele>
        <time>2021-11-08T22:11:16.798Z</time>
      </trkpt>
      <trkpt lat="47.543760" lon="7.948548">
        <ele>299.236485</ele>
        <time>2021-11-08T22:11:19.040Z</time>
      </trkpt>
      <trkpt lat="47.543579" lon="7.948287">
        <ele>299.562566</ele>
        <time>2021-11-08T22:11:24.757Z</time>
      </trkpt>
      <trkpt lat="47.543532" lon="7.948214">
        <ele>299.715098</ele>
        <time>2021-11-08T22:11:25.883Z</time>
      </trkpt>
      <trkpt lat="47.543435" lon="7.948000">
        <ele>300.104848</ele>
        <time>2021-11-08T22:11:28.945Z</time>
      </trkpt>
      <trkpt lat="47.543407" lon="7.947938">
        <ele>300.217638</ele>
        <time>2021-11-08T22:11:30.803Z</time>
      </trkpt>
      <trkpt lat="47.543280" lon="7.947656">
        <ele>300.730211</ele>
        <time>2021-11-08T22:11:35.289Z</time>
      </trkpt>
      <trkpt lat="47.543142" lon="7.947250">
        <ele>301.417523</ele>
        <time>2021-11-08T22:11:42.753Z</time>
      </trkpt>
      <trkpt lat="47.543086" lon="7.947052">
        <ele>301.742119</ele>
        <time>2021-11-08T22:11:46.183Z</time>
      </trkpt>
      <trkpt lat="47.543056" lon="7.946935">
        <ele>301.931359</ele>
        <time>2021-11-08T22:11:49.024Z</time>
      </trkpt>
      <trkpt lat="47.543045" lon="7.946881">
        <ele>302.016645</ele>
        <time>2021-11-08T22:11:50.181Z</time>
      </trkpt>
      <trkpt lat="47.542982" lon="7.946547">
        <ele>302.541007</ele>
        <time>2021-11-08T22:11:55.581Z</time>
      </trkpt>
      <trkpt lat="47.542974" lon="7.946495">
        <ele>302.621649</ele>
        <time>2021-11-08T22:11:57.221Z</time>
      </trkpt>
      <trkpt lat="47.542960" lon="7.946400">
        <ele>302.768674</ele>
        <time>2021-11-08T22:11:59.287Z</time>
      </trkpt>
      <trkpt lat="47.542916" lon="7.945730">
        <ele>303.722092</ele>
        <time>2021-11-08T22:12:11.952Z</time>
      </trkpt>
      <trkpt lat="47.542913" lon="7.945267">
        <ele>304.337344</ele>
        <time>2021-11-08T22:12:20.448Z</time>
      </trkpt>
      <trkpt lat="47.543007" lon="7.943867">
        <ele>306.206809</ele>
        <time>2021-11-08T22:12:41.615Z</time>
      </trkpt>
      <trkpt lat="47.543161" lon="7.942213">
        <ele>306.454617</ele>
        <time>2021-11-08T22:13:00.021Z</time>
      </trkpt>
      <trkpt lat="47.543435" lon="7.940670">
        <ele>305.876820</ele>
        <time>2021-11-08T22:13:12.969Z</time>
      </trkpt>
      <trkpt lat="47.543826" lon="7.939433">
        <ele>304.332239</ele>
        <time>2021-11-08T22:13:23.370Z</time>
      </trkpt>
      <trkpt lat="47.544472" lon="7.937932">
        <ele>302.283295</ele>
        <time>2021-11-08T22:13:36.694Z</time>
      </trkpt>
      <trkpt lat="47.544705" lon="7.937395">
        <ele>301.525504</ele>
        <time>2021-11-08T22:13:41.534Z</time>
      </trkpt>
      <trkpt lat="47.544903" lon="7.936917">
        <ele>300.859767</ele>
        <time>2021-11-08T22:13:45.794Z</time>
      </trkpt>
      <trkpt lat="47.545074" lon="7.936484">
        <ele>300.264263</ele>
        <time>2021-11-08T22:13:49.625Z</time>
      </trkpt>
      <trkpt lat="47.545457" lon="7.935110">
        <ele>299.105551</ele>
        <time>2021-11-08T22:14:00.993Z</time>
      </trkpt>
      <trkpt lat="47.545674" lon="7.933625">
        <ele>298.118359</ele>
        <time>2021-11-08T22:14:14.073Z</time>
      </trkpt>
      <trkpt lat="47.545702" lon="7.933290">
        <ele>298.381655</ele>
        <time>2021-11-08T22:14:17.654Z</time>
      </trkpt>
      <trkpt lat="47.545724" lon="7.932758">
        <ele>298.797392</ele>
        <time>2021-11-08T22:14:23.920Z</time>
      </trkpt>
      <trkpt lat="47.545721" lon="7.931992">
        <ele>299.394882</ele>
        <time>2021-11-08T22:14:33.960Z</time>
      </trkpt>
      <trkpt lat="47.545696" lon="7.931497">
        <ele>299.782060</ele>
        <time>2021-11-08T22:14:41.165Z</time>
      </trkpt>
      <trkpt lat="47.545661" lon="7.930955">
        <ele>300.213324</ele>
        <time>2021-11-08T22:14:49.860Z</time>
      </trkpt>
      <trkpt lat="47.545563" lon="7.929641">
        <ele>301.539711</ele>
        <time>2021-11-08T22:15:12.200Z</time>
      </trkpt>
      <trkpt lat="47.545475" lon="7.928419">
        <ele>302.772730</ele>
        <time>2021-11-08T22:15:28.503Z</time>
      </trkpt>
      <trkpt lat="47.545421" lon="7.927686">
        <ele>301.912046</ele>
        <time>2021-11-08T22:15:34.606Z</time>
      </trkpt>
      <trkpt lat="47.545406" lon="7.927306">
        <ele>301.361111</ele>
        <time>2021-11-08T22:15:37.510Z</time>
      </trkpt>
      <trkpt lat="47.545407" lon="7.927001">
        <ele>300.919662</ele>
        <time>2021-11-08T22:15:39.797Z</time>
      </trkpt>
      <trkpt lat="47.545409" lon="7.926773">
        <ele>300.589637</ele>
        <time>2021-11-08T22:15:41.426Z</time>
      </trkpt>
      <trkpt lat="47.545417" lon="7.925848">
        <ele>299.250721</ele>
        <time>2021-11-08T22:15:47.761Z</time>
      </trkpt>
      <trkpt lat="47.545446" lon="7.925350">
        <ele>298.190877</ele>
        <time>2021-11-08T22:15:51.053Z</time>
      </trkpt>
      <trkpt lat="47.545466" lon="7.924880">
        <ele>297.024884</ele>
        <time>2021-11-08T22:15:54.106Z</time>
      </trkpt>
      <trkpt lat="47.545481" lon="7.924396">
        <ele>295.825277</ele>
        <time>2021-11-08T22:15:57.190Z</time>
      </trkpt>
      <trkpt lat="47.545521" lon="7.923709">
        <ele>294.118005</ele>
        <time>2021-11-08T22:16:01.715Z</time>
      </trkpt>
      <trkpt lat="47.545536" lon="7.923407">
        <ele>293.368256</ele>
        <time>2021-11-08T22:16:03.863Z</time>
      </trkpt>
      <trkpt lat="47.545553" lon="7.923142">
        <ele>292.709182</ele>
        <time>2021-11-08T22:16:05.694Z</time>
      </trkpt>
      <trkpt lat="47.545587" lon="7.922895">
        <ele>292.293499</ele>
        <time>2021-11-08T22:16:07.627Z</time>
      </trkpt>
      <trkpt lat="47.545641" lon="7.922610">
        <ele>292.040824</ele>
        <time>2021-11-08T22:16:09.773Z</time>
      </trkpt>
      <trkpt lat="47.545690" lon="7.922369">
        <ele>291.825980</ele>
        <time>2021-11-08T22:16:11.780Z</time>
      </trkpt>
      <trkpt lat="47.545699" lon="7.922325">
        <ele>291.786736</ele>
        <time>2021-11-08T22:16:12.074Z</time>
      </trkpt>
      <trkpt lat="47.545714" lon="7.922249">
        <ele>291.719147</ele>
        <time>2021-11-08T22:16:12.664Z</time>
      </trkpt>
      <trkpt lat="47.545778" lon="7.921947">
        <ele>291.448958</ele>
        <time>2021-11-08T22:16:15.366Z</time>
      </trkpt>
      <trkpt lat="47.545810" lon="7.921755">
        <ele>291.280148</ele>
        <time>2021-11-08T22:16:16.847Z</time>
      </trkpt>
      <trkpt lat="47.545881" lon="7.921096">
        <ele>290.710516</ele>
        <time>2021-11-08T22:16:22.309Z</time>
      </trkpt>
      <trkpt lat="47.545913" lon="7.920765">
        <ele>290.425097</ele>
        <time>2021-11-08T22:16:25.202Z</time>
      </trkpt>
      <trkpt lat="47.545973" lon="7.920313">
        <ele>290.104923</ele>
        <time>2021-11-08T22:16:29.672Z</time>
      </trkpt>
      <trkpt lat="47.546128" lon="7.919617">
        <ele>289.951423</ele>
        <time>2021-11-08T22:16:36.913Z</time>
      </trkpt>
      <trkpt lat="47.546262" lon="7.919081">
        <ele>289.831710</ele>
        <time>2021-11-08T22:16:42.961Z</time>
      </trkpt>
      <trkpt lat="47.546821" lon="7.916867">
        <ele>289.171386</ele>
        <time>2021-11-08T22:17:03.629Z</time>
      </trkpt>
      <trkpt lat="47.547032" lon="7.916218">
        <ele>288.913948</ele>
        <time>2021-11-08T22:17:09.936Z</time>
      </trkpt>
      <trkpt lat="47.547091" lon="7.916039">
        <ele>288.842759</ele>
        <time>2021-11-08T22:17:11.710Z</time>
      </trkpt>
      <trkpt lat="47.547113" lon="7.915971">
        <ele>288.815810</ele>
        <time>2021-11-08T22:17:12.300Z</time>
      </trkpt>
      <trkpt lat="47.547423" lon="7.915080">
        <ele>288.694684</ele>
        <time>2021-11-08T22:17:21.787Z</time>
      </trkpt>
      <trkpt lat="47.547994" lon="7.913433">
        <ele>289.009276</ele>
        <time>2021-11-08T22:17:41.491Z</time>
      </trkpt>
      <trkpt lat="47.548027" lon="7.913334">
        <ele>289.028036</ele>
        <time>2021-11-08T22:17:42.851Z</time>
      </trkpt>
      <trkpt lat="47.548412" lon="7.912168">
        <ele>289.821525</ele>
        <time>2021-11-08T22:17:59.254Z</time>
      </trkpt>
      <trkpt lat="47.549012" lon="7.910340">
        <ele>291.364210</ele>
        <time>2021-11-08T22:18:26.200Z</time>
      </trkpt>
      <trkpt lat="47.549102" lon="7.910058">
        <ele>291.650808</ele>
        <time>2021-11-08T22:18:30.398Z</time>
      </trkpt>
      <trkpt lat="47.549158" lon="7.909875">
        <ele>291.835417</ele>
        <time>2021-11-08T22:18:32.881Z</time>
      </trkpt>
      <trkpt lat="47.549195" lon="7.909756">
        <ele>291.955793</ele>
        <time>2021-11-08T22:18:34.650Z</time>
      </trkpt>
      <trkpt lat="47.549198" lon="7.909746">
        <ele>291.965847</ele>
        <time>2021-11-08T22:18:34.929Z</time>
      </trkpt>
      <trkpt lat="47.549304" lon="7.909393">
        <ele>292.320821</ele>
        <time>2021-11-08T22:18:39.730Z</time>
      </trkpt>
      <trkpt lat="47.549520" lon="7.908678">
        <ele>293.040538</ele>
        <time>2021-11-08T22:18:50.025Z</time>
      </trkpt>
      <trkpt lat="47.549539" lon="7.908625">
        <ele>293.095674</ele>
        <time>2021-11-08T22:18:50.741Z</time>
      </trkpt>
      <trkpt lat="47.550497" lon="7.905558">
        <ele>298.472378</ele>
        <time>2021-11-08T22:19:45.551Z</time>
      </trkpt>
      <trkpt lat="47.550283" lon="7.905413">
        <ele>299.327233</ele>
        <time>2021-11-08T22:19:53.718Z</time>
      </trkpt>
      <trkpt lat="47.550067" lon="7.905245">
        <ele>300.213466</ele>
        <time>2021-11-08T22:20:02.404Z</time>
      </trkpt>
      <trkpt lat="47.549867" lon="7.905155">
        <ele>300.972797</ele>
        <time>2021-11-08T22:20:10.032Z</time>
      </trkpt>
      <trkpt lat="47.549868" lon="7.905010">
        <ele>301.328347</ele>
        <time>2021-11-08T22:20:13.438Z</time>
      </trkpt>
      <trkpt lat="47.550025" lon="7.904774">
        <ele>302.140838</ele>
        <time>2021-11-08T22:20:21.589Z</time>
      </trkpt>
      <trkpt lat="47.550302" lon="7.904164">
        <ele>303.943518</ele>
        <time>2021-11-08T22:20:39.888Z</time>
      </trkpt>
      <trkpt lat="47.550498" lon="7.903445">
        <ele>305.856436</ele>
        <time>2021-11-08T22:20:59.460Z</time>
      </trkpt>
      <trkpt lat="47.550688" lon="7.902451">
        <ele>308.406921</ele>
        <time>2021-11-08T22:21:22.008Z</time>
      </trkpt>
      <trkpt lat="47.550757" lon="7.901591">
        <ele>310.545019</ele>
        <time>2021-11-08T22:21:41.804Z</time>
      </trkpt>
      <trkpt lat="47.550769" lon="7.901362">
        <ele>311.173912</ele>
        <time>2021-11-08T22:21:47.712Z</time>
      </trkpt>
      <trkpt lat="47.550801" lon="7.900244">
        <ele>314.388672</ele>
        <time>2021-11-08T22:22:12.110Z</time>
      </trkpt>
      <trkpt lat="47.550819" lon="7.898109">
        <ele>319.807690</ele>
        <time>2021-11-08T22:22:59.150Z</time>
      </trkpt>
      <trkpt lat="47.550648" lon="7.896481">
        <ele>322.953929</ele>
        <time>2021-11-08T22:23:26.805Z</time>
      </trkpt>
      <trkpt lat="47.550639" lon="7.896345">
        <ele>323.214880</ele>
        <time>2021-11-08T22:23:29.180Z</time>
      </trkpt>
      <trkpt lat="47.550660" lon="7.896255">
        <ele>323.396724</ele>
        <time>2021-11-08T22:23:29.981Z</time>
      </trkpt>
      <trkpt lat="47.550838" lon="7.895509">
        <ele>324.104554</ele>
        <time>2021-11-08T22:23:40.149Z</time>
      </trkpt>
      <trkpt lat="47.550878" lon="7.895158">
        <ele>324.402163</ele>
        <time>2021-11-08T22:23:44.211Z</time>
      </trkpt>
      <trkpt lat="47.550908" lon="7.894308">
        <ele>325.113783</ele>
        <time>2021-11-08T22:23:54.683Z</time>
      </trkpt>
      <trkpt lat="47.550892" lon="7.893176">
        <ele>326.825809</ele>
        <time>2021-11-08T22:24:09.401Z</time>
      </trkpt>
      <trkpt lat="47.550904" lon="7.891725">
        <ele>330.667347</ele>
        <time>2021-11-08T22:24:39.163Z</time>
      </trkpt>
      <trkpt lat="47.550915" lon="7.890600">
        <ele>334.167970</ele>
        <time>2021-11-08T22:25:08.003Z</time>
      </trkpt>
      <trkpt lat="47.550833" lon="7.889069">
        <ele>340.635183</ele>
        <time>2021-11-08T22:25:50.637Z</time>
      </trkpt>
      <trkpt lat="47.550831" lon="7.888611">
        <ele>342.563834</ele>
        <time>2021-11-08T22:26:03.207Z</time>
      </trkpt>
      <trkpt lat="47.550789" lon="7.887816">
        <ele>345.764234</ele>
        <time>2021-11-08T22:26:23.818Z</time>
      </trkpt>
      <trkpt lat="47.550758" lon="7.887295">
        <ele>347.787615</ele>
        <time>2021-11-08T22:26:37.640Z</time>
      </trkpt>
      <trkpt lat="47.550677" lon="7.886476">
        <ele>350.989874</ele>
        <time>2021-11-08T22:26:59.129Z</time>
      </trkpt>
      <trkpt lat="47.550548" lon="7.885799">
        <ele>353.711329</ele>
        <time>2021-11-08T22:27:16.332Z</time>
      </trkpt>
      <trkpt lat="47.550391" lon="7.885109">
        <ele>356.008196</ele>
        <time>2021-11-08T22:27:33.969Z</time>
      </trkpt>
      <trkpt lat="47.550332" lon="7.884727">
        <ele>357.171424</ele>
        <time>2021-11-08T22:27:42.660Z</time>
      </trkpt>
      <trkpt lat="47.550234" lon="7.883221">
        <ele>361.662528</ele>
        <time>2021-11-08T22:28:15.491Z</time>
      </trkpt>
      <trkpt lat="47.549927" lon="7.881490">
        <ele>366.061268</ele>
        <time>2021-11-08T22:28:47.755Z</time>
      </trkpt>
      <trkpt lat="47.549726" lon="7.880786">
        <ele>367.895679</ele>
        <time>2021-11-08T22:29:03.731Z</time>
      </trkpt>
      <trkpt lat="47.549327" lon="7.879547">
        <ele>371.677265</ele>
        <time>2021-11-08T22:29:33.515Z</time>
      </trkpt>
      <trkpt lat="47.549318" lon="7.879398">
        <ele>372.103753</ele>
        <time>2021-11-08T22:29:36.704Z</time>
      </trkpt>
      <trkpt lat="47.549140" lon="7.879391">
        <ele>372.855873</ele>
        <time>2021-11-08T22:29:43.574Z</time>
      </trkpt>
      <trkpt lat="47.548718" lon="7.879258">
        <ele>374.678245</ele>
        <time>2021-11-08T22:29:57.245Z</time>
      </trkpt>
      <trkpt lat="47.548422" lon="7.878959">
        <ele>376.191470</ele>
        <time>2021-11-08T22:30:07.892Z</time>
      </trkpt>
      <trkpt lat="47.548234" lon="7.878638">
        <ele>376.524175</ele>
        <time>2021-11-08T22:30:16.324Z</time>
      </trkpt>
      <trkpt lat="47.547992" lon="7.877974">
        <ele>377.108857</ele>
        <time>2021-11-08T22:30:29.421Z</time>
      </trkpt>
      <trkpt lat="47.547574" lon="7.876801">
        <ele>378.136600</ele>
        <time>2021-11-08T22:30:43.184Z</time>
      </trkpt>
      <trkpt lat="47.547126" lon="7.875801">
        <ele>375.777459</ele>
        <time>2021-11-08T22:30:51.967Z</time>
      </trkpt>
      <trkpt lat="47.546309" lon="7.874154">
        <ele>370.071995</ele>
        <time>2021-11-08T22:31:05.155Z</time>
      </trkpt>
      <trkpt lat="47.546135" lon="7.873859">
        <ele>368.365997</ele>
        <time>2021-11-08T22:31:07.537Z</time>
      </trkpt>
      <trkpt lat="47.546077" lon="7.873763">
        <ele>367.804942</ele>
        <time>2021-11-08T22:31:08.348Z</time>
      </trkpt>
      <trkpt lat="47.545934" lon="7.873549">
        <ele>366.493616</ele>
        <time>2021-11-08T22:31:10.153Z</time>
      </trkpt>
      <trkpt lat="47.545746" lon="7.873302">
        <ele>364.872497</ele>
        <time>2021-11-08T22:31:12.441Z</time>
      </trkpt>
      <trkpt lat="47.545515" lon="7.873015">
        <ele>362.927504</ele>
        <time>2021-11-08T22:31:15.140Z</time>
      </trkpt>
      <trkpt lat="47.545478" lon="7.872968">
        <ele>362.613066</ele>
        <time>2021-11-08T22:31:15.582Z</time>
      </trkpt>
      <trkpt lat="47.545375" lon="7.872836">
        <ele>361.734435</ele>
        <time>2021-11-08T22:31:16.775Z</time>
      </trkpt>
      <trkpt lat="47.545131" lon="7.872664">
        <ele>359.989002</ele>
        <time>2021-11-08T22:31:19.234Z</time>
      </trkpt>
      <trkpt lat="47.544883" lon="7.872555">
        <ele>358.308178</ele>
        <time>2021-11-08T22:31:21.557Z</time>
      </trkpt>
      <trkpt lat="47.544390" lon="7.872423">
        <ele>355.052967</ele>
        <time>2021-11-08T22:31:26.021Z</time>
      </trkpt>
      <trkpt lat="47.543332" lon="7.872237">
        <ele>348.310454</ele>
        <time>2021-11-08T22:31:35.788Z</time>
      </trkpt>
      <trkpt lat="47.543251" lon="7.872152">
        <ele>347.909656</ele>
        <time>2021-11-08T22:31:36.729Z</time>
      </trkpt>
      <trkpt lat="47.543233" lon="7.872082">
        <ele>347.705491</ele>
        <time>2021-11-08T22:31:37.150Z</time>
      </trkpt>
      <trkpt lat="47.543013" lon="7.872182">
        <ele>346.776318</ele>
        <time>2021-11-08T22:31:39.390Z</time>
      </trkpt>
      <trkpt lat="47.542919" lon="7.872226">
        <ele>346.378276</ele>
        <time>2021-11-08T22:31:40.311Z</time>
      </trkpt>
      <trkpt lat="47.542814" lon="7.872280">
        <ele>345.929494</ele>
        <time>2021-11-08T22:31:41.364Z</time>
      </trkpt>
      <trkpt lat="47.542714" lon="7.872334">
        <ele>345.499732</ele>
        <time>2021-11-08T22:31:42.452Z</time>
      </trkpt>
      <trkpt lat="47.542537" lon="7.872430">
        <ele>344.738662</ele>
        <time>2021-11-08T22:31:44.185Z</time>
      </trkpt>
      <trkpt lat="47.542436" lon="7.872494">
        <ele>344.295110</ele>
        <time>2021-11-08T22:31:45.546Z</time>
      </trkpt>
      <trkpt lat="47.542394" lon="7.872341">
        <ele>343.844925</ele>
        <time>2021-11-08T22:31:46.641Z</time>
      </trkpt>
      <trkpt lat="47.542218" lon="7.871866">
        <ele>342.368035</ele>
        <time>2021-11-08T22:31:50.359Z</time>
      </trkpt>
      <trkpt lat="47.542091" lon="7.871721">
        <ele>341.720615</ele>
        <time>2021-11-08T22:31:51.895Z</time>
      </trkpt>
      <trkpt lat="47.542067" lon="7.871664">
        <ele>341.537508</ele>
        <time>2021-11-08T22:31:52.658Z</time>
      </trkpt>
      <trkpt lat="47.542039" lon="7.871556">
        <ele>341.343786</ele>
        <time>2021-11-08T22:31:53.575Z</time>
      </trkpt>
      <trkpt lat="47.541953" lon="7.871286">
        <ele>341.343786</ele>
        <time>2021-11-08T22:31:55.814Z</time>
      </trkpt>
      <trkpt lat="47.541796" lon="7.871042">
        <ele>341.343786</ele>
        <time>2021-11-08T22:31:58.424Z</time>
      </trkpt>
      <trkpt lat="47.541576" lon="7.870664">
        <ele>341.343786</ele>
        <time>2021-11-08T22:32:02.260Z</time>
      </trkpt>
      <trkpt lat="47.541410" lon="7.870791">
        <ele>341.343786</ele>
        <time>2021-11-08T22:32:04.343Z</time>
      </trkpt>
      <trkpt lat="47.541159" lon="7.870999">
        <ele>341.343786</ele>
        <time>2021-11-08T22:32:08.164Z</time>
      </trkpt>
    </trkseg>
  </trk>
</gpx>